<?xml version="1.0" encoding="UTF-8" standalone="no" ?>
<gpx xmlns="http://www.topografix.com/GPX/1/1" xmlns:xsi="http://www.w3.org/2001/XMLSchema-instance" xsi:schemaLocation="http://www.topografix.com/GPX/1/1 http://www.topografix.com/GPX/1/1/gpx.xsd" version="1.1" creator="VisuGPX - https://www.visugpx.com">
  <metadata>
    <name>60froidmont </name>
  </metadata>
  <trk>
    <name><![CDATA[60froidmont hernies]]></name>
    <trkseg>
      <trkpt lat="50.50105" lon="3.45078">
        <ele>17.165224</ele>
        <time>2020-06-23T16:16:12.938Z</time>
      </trkpt>
      <trkpt lat="50.501" lon="3.45115">
        <ele>17.165224</ele>
        <time>2020-06-23T16:16:17.547Z</time>
      </trkpt>
      <trkpt lat="50.50096" lon="3.45184">
        <ele>17.165224</ele>
        <time>2020-06-23T16:16:26.127Z</time>
      </trkpt>
      <trkpt lat="50.50092" lon="3.45227">
        <ele>17.165359</ele>
        <time>2020-06-23T16:16:31.507Z</time>
      </trkpt>
      <trkpt lat="50.50084" lon="3.45223">
        <ele>17.165551</ele>
        <time>2020-06-23T16:16:32.685Z</time>
      </trkpt>
      <trkpt lat="50.50052" lon="3.45203">
        <ele>17.166338</ele>
        <time>2020-06-23T16:16:37.320Z</time>
      </trkpt>
      <trkpt lat="50.50051" lon="3.45202">
        <ele>17.166375</ele>
        <time>2020-06-23T16:16:37.536Z</time>
      </trkpt>
      <trkpt lat="50.50044" lon="3.45199">
        <ele>17.166535</ele>
        <time>2020-06-23T16:16:38.473Z</time>
      </trkpt>
      <trkpt lat="50.50005" lon="3.45189">
        <ele>17.167435</ele>
        <time>2020-06-23T16:16:43.238Z</time>
      </trkpt>
      <trkpt lat="50.49999" lon="3.45188">
        <ele>17.16758</ele>
        <time>2020-06-23T16:16:43.931Z</time>
      </trkpt>
      <trkpt lat="50.49974" lon="3.45177">
        <ele>17.16815</ele>
        <time>2020-06-23T16:16:46.705Z</time>
      </trkpt>
      <trkpt lat="50.49958" lon="3.45159">
        <ele>17.168605</ele>
        <time>2020-06-23T16:16:48.806Z</time>
      </trkpt>
      <trkpt lat="50.49943" lon="3.45125">
        <ele>17.169198</ele>
        <time>2020-06-23T16:16:51.714Z</time>
      </trkpt>
      <trkpt lat="50.49935" lon="3.45106">
        <ele>17.090126</ele>
        <time>2020-06-23T16:16:53.302Z</time>
      </trkpt>
      <trkpt lat="50.49909" lon="3.45046">
        <ele>16.72014</ele>
        <time>2020-06-23T16:16:57.858Z</time>
      </trkpt>
      <trkpt lat="50.49874" lon="3.44964">
        <ele>16.212821</ele>
        <time>2020-06-23T16:17:03.898Z</time>
      </trkpt>
      <trkpt lat="50.49867" lon="3.44946">
        <ele>16.103619</ele>
        <time>2020-06-23T16:17:05.175Z</time>
      </trkpt>
      <trkpt lat="50.49864" lon="3.44939">
        <ele>16.060714</ele>
        <time>2020-06-23T16:17:05.689Z</time>
      </trkpt>
      <trkpt lat="50.49853" lon="3.44914">
        <ele>15.904748</ele>
        <time>2020-06-23T16:17:07.629Z</time>
      </trkpt>
      <trkpt lat="50.49851" lon="3.44909">
        <ele>15.875203</ele>
        <time>2020-06-23T16:17:08.004Z</time>
      </trkpt>
      <trkpt lat="50.49844" lon="3.44889">
        <ele>15.753639</ele>
        <time>2020-06-23T16:17:09.519Z</time>
      </trkpt>
      <trkpt lat="50.49799" lon="3.44762">
        <ele>15.808298</ele>
        <time>2020-06-23T16:17:20.024Z</time>
      </trkpt>
      <trkpt lat="50.49798" lon="3.44759">
        <ele>15.810407</ele>
        <time>2020-06-23T16:17:20.219Z</time>
      </trkpt>
      <trkpt lat="50.49776" lon="3.4469">
        <ele>15.861284</ele>
        <time>2020-06-23T16:17:26.602Z</time>
      </trkpt>
      <trkpt lat="50.49754" lon="3.44626">
        <ele>15.98678</ele>
        <time>2020-06-23T16:17:32.800Z</time>
      </trkpt>
      <trkpt lat="50.49742" lon="3.4459">
        <ele>16.377804</ele>
        <time>2020-06-23T16:17:36.596Z</time>
      </trkpt>
      <trkpt lat="50.49735" lon="3.44569">
        <ele>16.617262</ele>
        <time>2020-06-23T16:17:39.323Z</time>
      </trkpt>
      <trkpt lat="50.4971" lon="3.44499">
        <ele>17.403457</ele>
        <time>2020-06-23T16:17:47.840Z</time>
      </trkpt>
      <trkpt lat="50.49687" lon="3.44433">
        <ele>18.140922</ele>
        <time>2020-06-23T16:17:56.761Z</time>
      </trkpt>
      <trkpt lat="50.49674" lon="3.44405">
        <ele>18.479973</ele>
        <time>2020-06-23T16:18:00.926Z</time>
      </trkpt>
      <trkpt lat="50.49672" lon="3.44401">
        <ele>18.529223</ele>
        <time>2020-06-23T16:18:01.656Z</time>
      </trkpt>
      <trkpt lat="50.49669" lon="3.44396">
        <ele>18.598636</ele>
        <time>2020-06-23T16:18:02.324Z</time>
      </trkpt>
      <trkpt lat="50.49663" lon="3.44393">
        <ele>18.686655</ele>
        <time>2020-06-23T16:18:03.237Z</time>
      </trkpt>
      <trkpt lat="50.49657" lon="3.44381">
        <ele>18.809448</ele>
        <time>2020-06-23T16:18:05.501Z</time>
      </trkpt>
      <trkpt lat="50.49606" lon="3.44327">
        <ele>19.56256</ele>
        <time>2020-06-23T16:18:15.380Z</time>
      </trkpt>
      <trkpt lat="50.49601" lon="3.44316">
        <ele>19.664676</ele>
        <time>2020-06-23T16:18:17.270Z</time>
      </trkpt>
      <trkpt lat="50.496" lon="3.44307">
        <ele>19.735876</ele>
        <time>2020-06-23T16:18:18.155Z</time>
      </trkpt>
      <trkpt lat="50.49602" lon="3.44292">
        <ele>19.856765</ele>
        <time>2020-06-23T16:18:19.481Z</time>
      </trkpt>
      <trkpt lat="50.49629" lon="3.44231">
        <ele>20.436859</ele>
        <time>2020-06-23T16:18:26.838Z</time>
      </trkpt>
      <trkpt lat="50.49645" lon="3.44201">
        <ele>20.741512</ele>
        <time>2020-06-23T16:18:30.646Z</time>
      </trkpt>
      <trkpt lat="50.49648" lon="3.44196">
        <ele>20.798409</ele>
        <time>2020-06-23T16:18:31.138Z</time>
      </trkpt>
      <trkpt lat="50.49685" lon="3.44131">
        <ele>20.731926</ele>
        <time>2020-06-23T16:18:37.850Z</time>
      </trkpt>
      <trkpt lat="50.49705" lon="3.44106">
        <ele>20.646926</ele>
        <time>2020-06-23T16:18:40.477Z</time>
      </trkpt>
      <trkpt lat="50.49744" lon="3.44059">
        <ele>20.484699</ele>
        <time>2020-06-23T16:18:45.473Z</time>
      </trkpt>
      <trkpt lat="50.49763" lon="3.44038">
        <ele>20.407538</ele>
        <time>2020-06-23T16:18:47.871Z</time>
      </trkpt>
      <trkpt lat="50.49781" lon="3.4402">
        <ele>20.33778</ele>
        <time>2020-06-23T16:18:50.133Z</time>
      </trkpt>
      <trkpt lat="50.4985" lon="3.43976">
        <ele>20.19776</ele>
        <time>2020-06-23T16:18:58.210Z</time>
      </trkpt>
      <trkpt lat="50.49875" lon="3.43953">
        <ele>20.151568</ele>
        <time>2020-06-23T16:19:01.635Z</time>
      </trkpt>
      <trkpt lat="50.49908" lon="3.43909">
        <ele>20.083105</ele>
        <time>2020-06-23T16:19:06.572Z</time>
      </trkpt>
      <trkpt lat="50.49932" lon="3.43869">
        <ele>20.025804</ele>
        <time>2020-06-23T16:19:10.850Z</time>
      </trkpt>
      <trkpt lat="50.49959" lon="3.43822">
        <ele>20.027905</ele>
        <time>2020-06-23T16:19:15.613Z</time>
      </trkpt>
      <trkpt lat="50.49968" lon="3.4381">
        <ele>20.035409</ele>
        <time>2020-06-23T16:19:17.181Z</time>
      </trkpt>
      <trkpt lat="50.50021" lon="3.43737">
        <ele>20.079504</ele>
        <time>2020-06-23T16:19:25.576Z</time>
      </trkpt>
      <trkpt lat="50.50051" lon="3.43694">
        <ele>20.105245</ele>
        <time>2020-06-23T16:19:30.660Z</time>
      </trkpt>
      <trkpt lat="50.50074" lon="3.43662">
        <ele>20.123576</ele>
        <time>2020-06-23T16:19:34.406Z</time>
      </trkpt>
      <trkpt lat="50.50098" lon="3.43629">
        <ele>20.135498</ele>
        <time>2020-06-23T16:19:38.027Z</time>
      </trkpt>
      <trkpt lat="50.50185" lon="3.43497">
        <ele>20.180945</ele>
        <time>2020-06-23T16:19:52.500Z</time>
      </trkpt>
      <trkpt lat="50.50312" lon="3.43314">
        <ele>20.008082</ele>
        <time>2020-06-23T16:20:13.173Z</time>
      </trkpt>
      <trkpt lat="50.50361" lon="3.4322">
        <ele>19.627831</ele>
        <time>2020-06-23T16:20:21.299Z</time>
      </trkpt>
      <trkpt lat="50.50362" lon="3.43201">
        <ele>19.537013</ele>
        <time>2020-06-23T16:20:22.492Z</time>
      </trkpt>
      <trkpt lat="50.50371" lon="3.43197">
        <ele>19.468639</ele>
        <time>2020-06-23T16:20:23.425Z</time>
      </trkpt>
      <trkpt lat="50.50382" lon="3.43186">
        <ele>19.369745</ele>
        <time>2020-06-23T16:20:24.807Z</time>
      </trkpt>
      <trkpt lat="50.50386" lon="3.43182">
        <ele>19.333661</ele>
        <time>2020-06-23T16:20:25.264Z</time>
      </trkpt>
      <trkpt lat="50.50394" lon="3.43172">
        <ele>19.254579</ele>
        <time>2020-06-23T16:20:26.300Z</time>
      </trkpt>
      <trkpt lat="50.50408" lon="3.43153">
        <ele>19.119081</ele>
        <time>2020-06-23T16:20:28.156Z</time>
      </trkpt>
      <trkpt lat="50.50469" lon="3.43071">
        <ele>18.601538</ele>
        <time>2020-06-23T16:20:36.007Z</time>
      </trkpt>
      <trkpt lat="50.50517" lon="3.43003">
        <ele>18.496595</ele>
        <time>2020-06-23T16:20:42.793Z</time>
      </trkpt>
      <trkpt lat="50.50524" lon="3.42992">
        <ele>18.48022</ele>
        <time>2020-06-23T16:20:43.775Z</time>
      </trkpt>
      <trkpt lat="50.50526" lon="3.42988">
        <ele>18.474679</ele>
        <time>2020-06-23T16:20:44.160Z</time>
      </trkpt>
      <trkpt lat="50.50529" lon="3.42984">
        <ele>18.4684</ele>
        <time>2020-06-23T16:20:44.593Z</time>
      </trkpt>
      <trkpt lat="50.50538" lon="3.42968">
        <ele>18.446012</ele>
        <time>2020-06-23T16:20:46.350Z</time>
      </trkpt>
      <trkpt lat="50.50633" lon="3.42818">
        <ele>18.763701</ele>
        <time>2020-06-23T16:21:04.290Z</time>
      </trkpt>
      <trkpt lat="50.50652" lon="3.4279">
        <ele>18.939312</ele>
        <time>2020-06-23T16:21:08.249Z</time>
      </trkpt>
      <trkpt lat="50.50684" lon="3.42741">
        <ele>19.241108</ele>
        <time>2020-06-23T16:21:14.763Z</time>
      </trkpt>
      <trkpt lat="50.50731" lon="3.42669">
        <ele>19.631984</ele>
        <time>2020-06-23T16:21:24.206Z</time>
      </trkpt>
      <trkpt lat="50.50893" lon="3.42426">
        <ele>20.597711</ele>
        <time>2020-06-23T16:21:53.294Z</time>
      </trkpt>
      <trkpt lat="50.50931" lon="3.42378">
        <ele>20.821964</ele>
        <time>2020-06-23T16:21:59.929Z</time>
      </trkpt>
      <trkpt lat="50.50984" lon="3.42324">
        <ele>21.110892</ele>
        <time>2020-06-23T16:22:08.371Z</time>
      </trkpt>
      <trkpt lat="50.50987" lon="3.42321">
        <ele>21.129366</ele>
        <time>2020-06-23T16:22:08.931Z</time>
      </trkpt>
      <trkpt lat="50.51002" lon="3.42307">
        <ele>21.246568</ele>
        <time>2020-06-23T16:22:11.095Z</time>
      </trkpt>
      <trkpt lat="50.51021" lon="3.42292">
        <ele>21.398606</ele>
        <time>2020-06-23T16:22:14.111Z</time>
      </trkpt>
      <trkpt lat="50.51025" lon="3.42289">
        <ele>21.429628</ele>
        <time>2020-06-23T16:22:14.711Z</time>
      </trkpt>
      <trkpt lat="50.51038" lon="3.42282">
        <ele>21.526807</ele>
        <time>2020-06-23T16:22:16.545Z</time>
      </trkpt>
      <trkpt lat="50.5105" lon="3.42275">
        <ele>21.615618</ele>
        <time>2020-06-23T16:22:18.376Z</time>
      </trkpt>
      <trkpt lat="50.51046" lon="3.4226">
        <ele>21.6864</ele>
        <time>2020-06-23T16:22:20.215Z</time>
      </trkpt>
      <trkpt lat="50.5106" lon="3.42232">
        <ele>21.846386</ele>
        <time>2020-06-23T16:22:24.390Z</time>
      </trkpt>
      <trkpt lat="50.51068" lon="3.42217">
        <ele>21.934324</ele>
        <time>2020-06-23T16:22:26.758Z</time>
      </trkpt>
      <trkpt lat="50.51129" lon="3.42133">
        <ele>22.539465</ele>
        <time>2020-06-23T16:22:41.928Z</time>
      </trkpt>
      <trkpt lat="50.51218" lon="3.42052">
        <ele>23.474552</ele>
        <time>2020-06-23T16:23:01.423Z</time>
      </trkpt>
      <trkpt lat="50.51309" lon="3.41999">
        <ele>24.354186</ele>
        <time>2020-06-23T16:23:20.368Z</time>
      </trkpt>
      <trkpt lat="50.51384" lon="3.41976">
        <ele>25.028709</ele>
        <time>2020-06-23T16:23:35.271Z</time>
      </trkpt>
      <trkpt lat="50.51422" lon="3.41972">
        <ele>25.371172</ele>
        <time>2020-06-23T16:23:42.510Z</time>
      </trkpt>
      <trkpt lat="50.51437" lon="3.4197">
        <ele>25.500436</ele>
        <time>2020-06-23T16:23:45.209Z</time>
      </trkpt>
      <trkpt lat="50.51465" lon="3.41959">
        <ele>25.624762</ele>
        <time>2020-06-23T16:23:50.399Z</time>
      </trkpt>
      <trkpt lat="50.51481" lon="3.4195">
        <ele>25.616313</ele>
        <time>2020-06-23T16:23:53.508Z</time>
      </trkpt>
      <trkpt lat="50.51487" lon="3.41945">
        <ele>25.613384</ele>
        <time>2020-06-23T16:23:54.611Z</time>
      </trkpt>
      <trkpt lat="50.5151" lon="3.41926">
        <ele>25.600761</ele>
        <time>2020-06-23T16:23:59.127Z</time>
      </trkpt>
      <trkpt lat="50.51713" lon="3.41925">
        <ele>24.966166</ele>
        <time>2020-06-23T16:24:29.987Z</time>
      </trkpt>
      <trkpt lat="50.51727" lon="3.41926">
        <ele>24.876403</ele>
        <time>2020-06-23T16:24:31.879Z</time>
      </trkpt>
      <trkpt lat="50.51727" lon="3.41916">
        <ele>24.835744</ele>
        <time>2020-06-23T16:24:33.658Z</time>
      </trkpt>
      <trkpt lat="50.51727" lon="3.41926">
        <ele>24.795084</ele>
        <time>2020-06-23T16:24:35.406Z</time>
      </trkpt>
      <trkpt lat="50.51736" lon="3.41927">
        <ele>24.733692</ele>
        <time>2020-06-23T16:24:36.638Z</time>
      </trkpt>
      <trkpt lat="50.51872" lon="3.41918">
        <ele>23.866436</ele>
        <time>2020-06-23T16:24:55.519Z</time>
      </trkpt>
      <trkpt lat="50.5188" lon="3.41917">
        <ele>23.814119</ele>
        <time>2020-06-23T16:24:56.622Z</time>
      </trkpt>
      <trkpt lat="50.51886" lon="3.41916">
        <ele>23.776413</ele>
        <time>2020-06-23T16:24:57.522Z</time>
      </trkpt>
      <trkpt lat="50.51906" lon="3.41912">
        <ele>23.65337</ele>
        <time>2020-06-23T16:25:00.398Z</time>
      </trkpt>
      <trkpt lat="50.52017" lon="3.41913">
        <ele>23.55377</ele>
        <time>2020-06-23T16:25:17.815Z</time>
      </trkpt>
      <trkpt lat="50.52048" lon="3.41921">
        <ele>23.779525</ele>
        <time>2020-06-23T16:25:23.385Z</time>
      </trkpt>
      <trkpt lat="50.52079" lon="3.41929">
        <ele>24.002068</ele>
        <time>2020-06-23T16:25:29.465Z</time>
      </trkpt>
      <trkpt lat="50.52093" lon="3.41932">
        <ele>24.102077</ele>
        <time>2020-06-23T16:25:32.087Z</time>
      </trkpt>
      <trkpt lat="50.52105" lon="3.41935">
        <ele>24.18854</ele>
        <time>2020-06-23T16:25:34.812Z</time>
      </trkpt>
      <trkpt lat="50.52169" lon="3.4195">
        <ele>24.749956</ele>
        <time>2020-06-23T16:25:47.732Z</time>
      </trkpt>
      <trkpt lat="50.52246" lon="3.41966">
        <ele>25.730152</ele>
        <time>2020-06-23T16:26:04.025Z</time>
      </trkpt>
      <trkpt lat="50.52273" lon="3.41971">
        <ele>26.071944</ele>
        <time>2020-06-23T16:26:09.417Z</time>
      </trkpt>
      <trkpt lat="50.52365" lon="3.41989">
        <ele>27.064514</ele>
        <time>2020-06-23T16:26:27.748Z</time>
      </trkpt>
      <trkpt lat="50.52437" lon="3.42011">
        <ele>27.622969</ele>
        <time>2020-06-23T16:26:41.370Z</time>
      </trkpt>
      <trkpt lat="50.52521" lon="3.42029">
        <ele>28.183742</ele>
        <time>2020-06-23T16:26:56.764Z</time>
      </trkpt>
      <trkpt lat="50.52597" lon="3.42045">
        <ele>28.304212</ele>
        <time>2020-06-23T16:27:10.022Z</time>
      </trkpt>
      <trkpt lat="50.52752" lon="3.4208">
        <ele>28.419682</ele>
        <time>2020-06-23T16:27:34.953Z</time>
      </trkpt>
      <trkpt lat="50.52836" lon="3.42099">
        <ele>28.389129</ele>
        <time>2020-06-23T16:27:48.470Z</time>
      </trkpt>
      <trkpt lat="50.5289" lon="3.42111">
        <ele>28.338294</ele>
        <time>2020-06-23T16:27:57.433Z</time>
      </trkpt>
      <trkpt lat="50.53254" lon="3.42189">
        <ele>27.230149</ele>
        <time>2020-06-23T16:28:54.829Z</time>
      </trkpt>
      <trkpt lat="50.53265" lon="3.42192">
        <ele>27.096575</ele>
        <time>2020-06-23T16:28:56.285Z</time>
      </trkpt>
      <trkpt lat="50.53268" lon="3.42193">
        <ele>27.058723</ele>
        <time>2020-06-23T16:28:56.578Z</time>
      </trkpt>
      <trkpt lat="50.53342" lon="3.42208">
        <ele>26.120597</ele>
        <time>2020-06-23T16:29:03.535Z</time>
      </trkpt>
      <trkpt lat="50.53478" lon="3.42237">
        <ele>24.13413</ele>
        <time>2020-06-23T16:29:15.746Z</time>
      </trkpt>
      <trkpt lat="50.53576" lon="3.42263">
        <ele>22.561594</ele>
        <time>2020-06-23T16:29:24.883Z</time>
      </trkpt>
      <trkpt lat="50.53725" lon="3.42291">
        <ele>21.261913</ele>
        <time>2020-06-23T16:29:39.971Z</time>
      </trkpt>
      <trkpt lat="50.53826" lon="3.42315">
        <ele>20.565717</ele>
        <time>2020-06-23T16:29:50.465Z</time>
      </trkpt>
      <trkpt lat="50.53907" lon="3.42331">
        <ele>20.058275</ele>
        <time>2020-06-23T16:29:59.204Z</time>
      </trkpt>
      <trkpt lat="50.53965" lon="3.42346">
        <ele>19.707796</ele>
        <time>2020-06-23T16:30:05.212Z</time>
      </trkpt>
      <trkpt lat="50.53968" lon="3.42348">
        <ele>19.686041</ele>
        <time>2020-06-23T16:30:05.550Z</time>
      </trkpt>
      <trkpt lat="50.5398" lon="3.423">
        <ele>19.491357</ele>
        <time>2020-06-23T16:30:10.317Z</time>
      </trkpt>
      <trkpt lat="50.53985" lon="3.4228">
        <ele>19.412451</ele>
        <time>2020-06-23T16:30:12.293Z</time>
      </trkpt>
      <trkpt lat="50.53997" lon="3.42265">
        <ele>19.321876</ele>
        <time>2020-06-23T16:30:14.454Z</time>
      </trkpt>
      <trkpt lat="50.54024" lon="3.4224">
        <ele>19.137874</ele>
        <time>2020-06-23T16:30:19.024Z</time>
      </trkpt>
      <trkpt lat="50.54054" lon="3.42229">
        <ele>18.958597</ele>
        <time>2020-06-23T16:30:23.551Z</time>
      </trkpt>
      <trkpt lat="50.54068" lon="3.42229">
        <ele>18.871941</ele>
        <time>2020-06-23T16:30:25.681Z</time>
      </trkpt>
      <trkpt lat="50.54074" lon="3.4223">
        <ele>18.841676</ele>
        <time>2020-06-23T16:30:26.508Z</time>
      </trkpt>
      <trkpt lat="50.54079" lon="3.4223">
        <ele>18.839671</ele>
        <time>2020-06-23T16:30:27.246Z</time>
      </trkpt>
      <trkpt lat="50.54128" lon="3.42236">
        <ele>18.817151</ele>
        <time>2020-06-23T16:30:35.025Z</time>
      </trkpt>
      <trkpt lat="50.54162" lon="3.42227">
        <ele>18.801407</ele>
        <time>2020-06-23T16:30:40.417Z</time>
      </trkpt>
      <trkpt lat="50.54211" lon="3.42191">
        <ele>18.776748</ele>
        <time>2020-06-23T16:30:49.055Z</time>
      </trkpt>
      <trkpt lat="50.5421" lon="3.42175">
        <ele>18.772055</ele>
        <time>2020-06-23T16:30:50.327Z</time>
      </trkpt>
      <trkpt lat="50.54221" lon="3.42162">
        <ele>18.765804</ele>
        <time>2020-06-23T16:30:52.701Z</time>
      </trkpt>
      <trkpt lat="50.54311" lon="3.41984">
        <ele>19.426504</ele>
        <time>2020-06-23T16:31:18.760Z</time>
      </trkpt>
      <trkpt lat="50.5432" lon="3.41974">
        <ele>19.485687</ele>
        <time>2020-06-23T16:31:20.875Z</time>
      </trkpt>
      <trkpt lat="50.54334" lon="3.4196">
        <ele>19.565755</ele>
        <time>2020-06-23T16:31:23.710Z</time>
      </trkpt>
      <trkpt lat="50.54358" lon="3.41944">
        <ele>19.69949</ele>
        <time>2020-06-23T16:31:28.360Z</time>
      </trkpt>
      <trkpt lat="50.54397" lon="3.41931">
        <ele>19.917104</ele>
        <time>2020-06-23T16:31:35.572Z</time>
      </trkpt>
      <trkpt lat="50.54417" lon="3.41925">
        <ele>20.024493</ele>
        <time>2020-06-23T16:31:39.117Z</time>
      </trkpt>
      <trkpt lat="50.54439" lon="3.41907">
        <ele>20.156122</ele>
        <time>2020-06-23T16:31:43.489Z</time>
      </trkpt>
      <trkpt lat="50.54448" lon="3.41892">
        <ele>20.228641</ele>
        <time>2020-06-23T16:31:45.931Z</time>
      </trkpt>
      <trkpt lat="50.54517" lon="3.41725">
        <ele>21.09873</ele>
        <time>2020-06-23T16:32:08.678Z</time>
      </trkpt>
      <trkpt lat="50.5453" lon="3.41694">
        <ele>21.31138</ele>
        <time>2020-06-23T16:32:13.016Z</time>
      </trkpt>
      <trkpt lat="50.5456" lon="3.4153">
        <ele>22.310545</ele>
        <time>2020-06-23T16:32:33.992Z</time>
      </trkpt>
      <trkpt lat="50.54707" lon="3.41187">
        <ele>25.893887</ele>
        <time>2020-06-23T16:33:29.194Z</time>
      </trkpt>
      <trkpt lat="50.54722" lon="3.41157">
        <ele>26.195946</ele>
        <time>2020-06-23T16:33:34.253Z</time>
      </trkpt>
      <trkpt lat="50.5476" lon="3.41105">
        <ele>26.817686</ele>
        <time>2020-06-23T16:33:44.069Z</time>
      </trkpt>
      <trkpt lat="50.54776" lon="3.41089">
        <ele>27.054225</ele>
        <time>2020-06-23T16:33:47.817Z</time>
      </trkpt>
      <trkpt lat="50.54794" lon="3.41076">
        <ele>27.121976</ele>
        <time>2020-06-23T16:33:51.477Z</time>
      </trkpt>
      <trkpt lat="50.54828" lon="3.4106">
        <ele>27.242759</ele>
        <time>2020-06-23T16:33:57.981Z</time>
      </trkpt>
      <trkpt lat="50.54933" lon="3.41026">
        <ele>27.60895</ele>
        <time>2020-06-23T16:34:16.315Z</time>
      </trkpt>
      <trkpt lat="50.54954" lon="3.41019">
        <ele>27.649452</ele>
        <time>2020-06-23T16:34:19.682Z</time>
      </trkpt>
      <trkpt lat="50.55128" lon="3.40966">
        <ele>26.949322</ele>
        <time>2020-06-23T16:34:46.171Z</time>
      </trkpt>
      <trkpt lat="50.55256" lon="3.40915">
        <ele>26.243461</ele>
        <time>2020-06-23T16:35:05.363Z</time>
      </trkpt>
      <trkpt lat="50.55329" lon="3.40904">
        <ele>26.072899</ele>
        <time>2020-06-23T16:35:16.246Z</time>
      </trkpt>
      <trkpt lat="50.55443" lon="3.40868">
        <ele>26.390952</ele>
        <time>2020-06-23T16:35:36.041Z</time>
      </trkpt>
      <trkpt lat="50.55459" lon="3.40859">
        <ele>26.4366</ele>
        <time>2020-06-23T16:35:39.169Z</time>
      </trkpt>
      <trkpt lat="50.5544" lon="3.40777">
        <ele>27.039689</ele>
        <time>2020-06-23T16:35:49.614Z</time>
      </trkpt>
      <trkpt lat="50.55423" lon="3.40684">
        <ele>27.97568</ele>
        <time>2020-06-23T16:36:02.578Z</time>
      </trkpt>
      <trkpt lat="50.55426" lon="3.40567">
        <ele>29.105783</ele>
        <time>2020-06-23T16:36:19.057Z</time>
      </trkpt>
      <trkpt lat="50.55428" lon="3.40534">
        <ele>29.490611</ele>
        <time>2020-06-23T16:36:23.896Z</time>
      </trkpt>
      <trkpt lat="50.55428" lon="3.40534">
        <ele>29.490611</ele>
        <time>2020-06-23T16:36:23.956Z</time>
      </trkpt>
      <trkpt lat="50.55438" lon="3.40459">
        <ele>30.44002</ele>
        <time>2020-06-23T16:36:35.015Z</time>
      </trkpt>
      <trkpt lat="50.55455" lon="3.40384">
        <ele>31.428016</ele>
        <time>2020-06-23T16:36:46.938Z</time>
      </trkpt>
      <trkpt lat="50.55477" lon="3.40283">
        <ele>32.749536</ele>
        <time>2020-06-23T16:37:02.312Z</time>
      </trkpt>
      <trkpt lat="50.55504" lon="3.40212">
        <ele>32.902891</ele>
        <time>2020-06-23T16:37:12.335Z</time>
      </trkpt>
      <trkpt lat="50.55519" lon="3.40171">
        <ele>32.990854</ele>
        <time>2020-06-23T16:37:17.594Z</time>
      </trkpt>
      <trkpt lat="50.55524" lon="3.40143">
        <ele>33.045072</ele>
        <time>2020-06-23T16:37:21.099Z</time>
      </trkpt>
      <trkpt lat="50.55516" lon="3.40116">
        <ele>33.099067</ele>
        <time>2020-06-23T16:37:23.669Z</time>
      </trkpt>
      <trkpt lat="50.55465" lon="3.40078">
        <ele>33.262291</ele>
        <time>2020-06-23T16:37:32.295Z</time>
      </trkpt>
      <trkpt lat="50.55412" lon="3.40037">
        <ele>33.068506</ele>
        <time>2020-06-23T16:37:40.713Z</time>
      </trkpt>
      <trkpt lat="50.55397" lon="3.40037">
        <ele>33.012807</ele>
        <time>2020-06-23T16:37:43.008Z</time>
      </trkpt>
      <trkpt lat="50.55374" lon="3.40058">
        <ele>32.917104</ele>
        <time>2020-06-23T16:37:46.585Z</time>
      </trkpt>
      <trkpt lat="50.55351" lon="3.40034">
        <ele>32.816542</ele>
        <time>2020-06-23T16:37:49.654Z</time>
      </trkpt>
      <trkpt lat="50.55179" lon="3.39874">
        <ele>33.142017</ele>
        <time>2020-06-23T16:38:15.609Z</time>
      </trkpt>
      <trkpt lat="50.55146" lon="3.39843">
        <ele>33.282845</ele>
        <time>2020-06-23T16:38:20.611Z</time>
      </trkpt>
      <trkpt lat="50.55012" lon="3.39719">
        <ele>33.922299</ele>
        <time>2020-06-23T16:38:41.182Z</time>
      </trkpt>
      <trkpt lat="50.55017" lon="3.39699">
        <ele>33.978091</ele>
        <time>2020-06-23T16:38:42.998Z</time>
      </trkpt>
      <trkpt lat="50.55023" lon="3.39677">
        <ele>34.048923</ele>
        <time>2020-06-23T16:38:44.944Z</time>
      </trkpt>
      <trkpt lat="50.55031" lon="3.3965">
        <ele>34.146149</ele>
        <time>2020-06-23T16:38:47.492Z</time>
      </trkpt>
      <trkpt lat="50.55043" lon="3.39618">
        <ele>34.269199</ele>
        <time>2020-06-23T16:38:50.653Z</time>
      </trkpt>
      <trkpt lat="50.55059" lon="3.39587">
        <ele>34.399388</ele>
        <time>2020-06-23T16:38:54.125Z</time>
      </trkpt>
      <trkpt lat="50.55236" lon="3.39306">
        <ele>35.426751</ele>
        <time>2020-06-23T16:39:28.238Z</time>
      </trkpt>
      <trkpt lat="50.55243" lon="3.39295">
        <ele>35.458377</ele>
        <time>2020-06-23T16:39:29.654Z</time>
      </trkpt>
      <trkpt lat="50.55256" lon="3.39262">
        <ele>35.527934</ele>
        <time>2020-06-23T16:39:32.066Z</time>
      </trkpt>
      <trkpt lat="50.55307" lon="3.3909">
        <ele>35.302151</ele>
        <time>2020-06-23T16:39:45.976Z</time>
      </trkpt>
      <trkpt lat="50.55311" lon="3.39075">
        <ele>35.28263</ele>
        <time>2020-06-23T16:39:46.905Z</time>
      </trkpt>
      <trkpt lat="50.55318" lon="3.39056">
        <ele>35.257044</ele>
        <time>2020-06-23T16:39:48.560Z</time>
      </trkpt>
      <trkpt lat="50.55319" lon="3.39053">
        <ele>35.252811</ele>
        <time>2020-06-23T16:39:48.840Z</time>
      </trkpt>
      <trkpt lat="50.5532" lon="3.39047">
        <ele>35.24434</ele>
        <time>2020-06-23T16:39:49.386Z</time>
      </trkpt>
      <trkpt lat="50.5532" lon="3.39043">
        <ele>35.240098</ele>
        <time>2020-06-23T16:39:49.667Z</time>
      </trkpt>
      <trkpt lat="50.55326" lon="3.3903">
        <ele>35.221362</ele>
        <time>2020-06-23T16:39:50.639Z</time>
      </trkpt>
      <trkpt lat="50.55337" lon="3.3901">
        <ele>35.2064</ele>
        <time>2020-06-23T16:39:52.586Z</time>
      </trkpt>
      <trkpt lat="50.55339" lon="3.39007">
        <ele>35.217704</ele>
        <time>2020-06-23T16:39:52.989Z</time>
      </trkpt>
      <trkpt lat="50.55343" lon="3.38997">
        <ele>35.245019</ele>
        <time>2020-06-23T16:39:53.962Z</time>
      </trkpt>
      <trkpt lat="50.55355" lon="3.38973">
        <ele>35.315819</ele>
        <time>2020-06-23T16:39:55.982Z</time>
      </trkpt>
      <trkpt lat="50.55367" lon="3.38948">
        <ele>35.388853</ele>
        <time>2020-06-23T16:39:58.612Z</time>
      </trkpt>
      <trkpt lat="50.55461" lon="3.38747">
        <ele>36.116625</ele>
        <time>2020-06-23T16:40:20.452Z</time>
      </trkpt>
      <trkpt lat="50.55594" lon="3.3841">
        <ele>38.727133</ele>
        <time>2020-06-23T16:40:57.726Z</time>
      </trkpt>
      <trkpt lat="50.55624" lon="3.38347">
        <ele>39.391249</ele>
        <time>2020-06-23T16:41:06.404Z</time>
      </trkpt>
      <trkpt lat="50.55646" lon="3.38302">
        <ele>39.95854</ele>
        <time>2020-06-23T16:41:13.006Z</time>
      </trkpt>
      <trkpt lat="50.5568" lon="3.38242">
        <ele>41.042822</ele>
        <time>2020-06-23T16:41:22.249Z</time>
      </trkpt>
      <trkpt lat="50.55719" lon="3.3817">
        <ele>42.333678</ele>
        <time>2020-06-23T16:41:33.880Z</time>
      </trkpt>
      <trkpt lat="50.55736" lon="3.38138">
        <ele>42.893425</ele>
        <time>2020-06-23T16:41:38.973Z</time>
      </trkpt>
      <trkpt lat="50.55777" lon="3.38064">
        <ele>44.328134</ele>
        <time>2020-06-23T16:41:50.696Z</time>
      </trkpt>
      <trkpt lat="50.55812" lon="3.37998">
        <ele>45.694163</ele>
        <time>2020-06-23T16:42:01.169Z</time>
      </trkpt>
      <trkpt lat="50.55866" lon="3.37871">
        <ele>48.115409</ele>
        <time>2020-06-23T16:42:20.714Z</time>
      </trkpt>
      <trkpt lat="50.55896" lon="3.37821">
        <ele>49.525383</ele>
        <time>2020-06-23T16:42:30.174Z</time>
      </trkpt>
      <trkpt lat="50.56126" lon="3.37544">
        <ele>58.955501</ele>
        <time>2020-06-23T16:43:36.061Z</time>
      </trkpt>
      <trkpt lat="50.56192" lon="3.37455">
        <ele>61.04408</ele>
        <time>2020-06-23T16:43:54.609Z</time>
      </trkpt>
      <trkpt lat="50.56221" lon="3.37403">
        <ele>61.947565</ele>
        <time>2020-06-23T16:44:02.505Z</time>
      </trkpt>
      <trkpt lat="50.56239" lon="3.37368">
        <ele>62.526821</ele>
        <time>2020-06-23T16:44:07.520Z</time>
      </trkpt>
      <trkpt lat="50.56222" lon="3.37356">
        <ele>62.912239</ele>
        <time>2020-06-23T16:44:11.153Z</time>
      </trkpt>
      <trkpt lat="50.56213" lon="3.37334">
        <ele>63.258114</ele>
        <time>2020-06-23T16:44:14.770Z</time>
      </trkpt>
      <trkpt lat="50.56206" lon="3.3727">
        <ele>63.544745</ele>
        <time>2020-06-23T16:44:22.599Z</time>
      </trkpt>
      <trkpt lat="50.56187" lon="3.37229">
        <ele>63.637764</ele>
        <time>2020-06-23T16:44:28.463Z</time>
      </trkpt>
      <trkpt lat="50.55917" lon="3.36852">
        <ele>63.640758</ele>
        <time>2020-06-23T16:45:25.780Z</time>
      </trkpt>
      <trkpt lat="50.55908" lon="3.36848">
        <ele>63.624584</ele>
        <time>2020-06-23T16:45:27.101Z</time>
      </trkpt>
      <trkpt lat="50.559" lon="3.36847">
        <ele>63.609528</ele>
        <time>2020-06-23T16:45:28.355Z</time>
      </trkpt>
      <trkpt lat="50.55894" lon="3.36844">
        <ele>63.59805</ele>
        <time>2020-06-23T16:45:29.128Z</time>
      </trkpt>
      <trkpt lat="50.55873" lon="3.36834">
        <ele>63.558262</ele>
        <time>2020-06-23T16:45:32.385Z</time>
      </trkpt>
      <trkpt lat="50.55779" lon="3.36696">
        <ele>63.821761</ele>
        <time>2020-06-23T16:45:53.270Z</time>
      </trkpt>
      <trkpt lat="50.55773" lon="3.36684">
        <ele>63.886031</ele>
        <time>2020-06-23T16:45:54.697Z</time>
      </trkpt>
      <trkpt lat="50.55772" lon="3.36671">
        <ele>63.938186</ele>
        <time>2020-06-23T16:45:57.330Z</time>
      </trkpt>
      <trkpt lat="50.55774" lon="3.36646">
        <ele>64.046751</ele>
        <time>2020-06-23T16:46:00.103Z</time>
      </trkpt>
      <trkpt lat="50.55824" lon="3.36479">
        <ele>64.66949</ele>
        <time>2020-06-23T16:46:22.556Z</time>
      </trkpt>
      <trkpt lat="50.55827" lon="3.36467">
        <ele>64.684459</ele>
        <time>2020-06-23T16:46:25.163Z</time>
      </trkpt>
      <trkpt lat="50.55849" lon="3.36387">
        <ele>64.784954</ele>
        <time>2020-06-23T16:46:34.938Z</time>
      </trkpt>
      <trkpt lat="50.55887" lon="3.36238">
        <ele>64.645176</ele>
        <time>2020-06-23T16:46:50.329Z</time>
      </trkpt>
      <trkpt lat="50.55895" lon="3.3618">
        <ele>63.975057</ele>
        <time>2020-06-23T16:46:55.261Z</time>
      </trkpt>
      <trkpt lat="50.55879" lon="3.35799">
        <ele>59.143125</ele>
        <time>2020-06-23T16:47:25.670Z</time>
      </trkpt>
      <trkpt lat="50.55876" lon="3.35493">
        <ele>54.550468</ele>
        <time>2020-06-23T16:47:49.319Z</time>
      </trkpt>
      <trkpt lat="50.55877" lon="3.35467">
        <ele>54.140851</ele>
        <time>2020-06-23T16:47:51.378Z</time>
      </trkpt>
      <trkpt lat="50.5588" lon="3.35367">
        <ele>52.807211</ele>
        <time>2020-06-23T16:47:59.247Z</time>
      </trkpt>
      <trkpt lat="50.55888" lon="3.35288">
        <ele>51.902807</ele>
        <time>2020-06-23T16:48:05.685Z</time>
      </trkpt>
      <trkpt lat="50.55896" lon="3.35226">
        <ele>51.178425</ele>
        <time>2020-06-23T16:48:10.899Z</time>
      </trkpt>
      <trkpt lat="50.55905" lon="3.35166">
        <ele>50.485621</ele>
        <time>2020-06-23T16:48:16.034Z</time>
      </trkpt>
      <trkpt lat="50.55917" lon="3.35057">
        <ele>49.849644</ele>
        <time>2020-06-23T16:48:25.691Z</time>
      </trkpt>
      <trkpt lat="50.55921" lon="3.35037">
        <ele>49.769302</ele>
        <time>2020-06-23T16:48:27.489Z</time>
      </trkpt>
      <trkpt lat="50.55928" lon="3.35051">
        <ele>49.701198</ele>
        <time>2020-06-23T16:48:29.141Z</time>
      </trkpt>
      <trkpt lat="50.55946" lon="3.35074">
        <ele>49.560837</ele>
        <time>2020-06-23T16:48:32.475Z</time>
      </trkpt>
      <trkpt lat="50.55973" lon="3.35093">
        <ele>49.382558</ele>
        <time>2020-06-23T16:48:36.971Z</time>
      </trkpt>
      <trkpt lat="50.56081" lon="3.35113">
        <ele>49.306115</ele>
        <time>2020-06-23T16:48:54.949Z</time>
      </trkpt>
      <trkpt lat="50.56126" lon="3.35149">
        <ele>49.502477</ele>
        <time>2020-06-23T16:49:04.160Z</time>
      </trkpt>
      <trkpt lat="50.56227" lon="3.35269">
        <ele>49.784455</ele>
        <time>2020-06-23T16:49:26.800Z</time>
      </trkpt>
      <trkpt lat="50.56275" lon="3.35383">
        <ele>49.796089</ele>
        <time>2020-06-23T16:49:41.136Z</time>
      </trkpt>
      <trkpt lat="50.56305" lon="3.3544">
        <ele>49.680619</ele>
        <time>2020-06-23T16:49:47.958Z</time>
      </trkpt>
      <trkpt lat="50.56309" lon="3.35446">
        <ele>49.625259</ele>
        <time>2020-06-23T16:49:48.634Z</time>
      </trkpt>
      <trkpt lat="50.56333" lon="3.35472">
        <ele>49.275315</ele>
        <time>2020-06-23T16:49:52.820Z</time>
      </trkpt>
      <trkpt lat="50.56376" lon="3.35506">
        <ele>48.710658</ele>
        <time>2020-06-23T16:49:59.392Z</time>
      </trkpt>
      <trkpt lat="50.56387" lon="3.35515">
        <ele>48.561577</ele>
        <time>2020-06-23T16:50:01.131Z</time>
      </trkpt>
      <trkpt lat="50.5639" lon="3.35495">
        <ele>48.403479</ele>
        <time>2020-06-23T16:50:02.849Z</time>
      </trkpt>
      <trkpt lat="50.56382" lon="3.35329">
        <ele>47.107889</ele>
        <time>2020-06-23T16:50:16.673Z</time>
      </trkpt>
      <trkpt lat="50.56355" lon="3.35209">
        <ele>46.060438</ele>
        <time>2020-06-23T16:50:27.427Z</time>
      </trkpt>
      <trkpt lat="50.56352" lon="3.35167">
        <ele>45.710736</ele>
        <time>2020-06-23T16:50:31.163Z</time>
      </trkpt>
      <trkpt lat="50.56415" lon="3.34974">
        <ele>44.726293</ele>
        <time>2020-06-23T16:50:51.073Z</time>
      </trkpt>
      <trkpt lat="50.5642" lon="3.34961">
        <ele>44.671698</ele>
        <time>2020-06-23T16:50:52.592Z</time>
      </trkpt>
      <trkpt lat="50.56422" lon="3.34949">
        <ele>44.628577</ele>
        <time>2020-06-23T16:50:53.729Z</time>
      </trkpt>
      <trkpt lat="50.56459" lon="3.34786">
        <ele>44.395827</ele>
        <time>2020-06-23T16:51:11.001Z</time>
      </trkpt>
      <trkpt lat="50.56463" lon="3.34772">
        <ele>44.40647</ele>
        <time>2020-06-23T16:51:12.544Z</time>
      </trkpt>
      <trkpt lat="50.56466" lon="3.3476">
        <ele>44.415529</ele>
        <time>2020-06-23T16:51:13.879Z</time>
      </trkpt>
      <trkpt lat="50.56528" lon="3.34601">
        <ele>44.629214</ele>
        <time>2020-06-23T16:51:33.971Z</time>
      </trkpt>
      <trkpt lat="50.56544" lon="3.3456">
        <ele>44.840362</ele>
        <time>2020-06-23T16:51:39.383Z</time>
      </trkpt>
      <trkpt lat="50.56631" lon="3.34416">
        <ele>45.7117</ele>
        <time>2020-06-23T16:52:02.806Z</time>
      </trkpt>
      <trkpt lat="50.56655" lon="3.34341">
        <ele>46.293215</ele>
        <time>2020-06-23T16:52:13.398Z</time>
      </trkpt>
      <trkpt lat="50.56676" lon="3.34233">
        <ele>47.121569</ele>
        <time>2020-06-23T16:52:27.773Z</time>
      </trkpt>
      <trkpt lat="50.56699" lon="3.34188">
        <ele>47.547746</ele>
        <time>2020-06-23T16:52:35.176Z</time>
      </trkpt>
      <trkpt lat="50.56711" lon="3.34175">
        <ele>47.712404</ele>
        <time>2020-06-23T16:52:38.167Z</time>
      </trkpt>
      <trkpt lat="50.56703" lon="3.34159">
        <ele>47.865865</ele>
        <time>2020-06-23T16:52:40.781Z</time>
      </trkpt>
      <trkpt lat="50.5665" lon="3.34047">
        <ele>49.032474</ele>
        <time>2020-06-23T16:52:58.657Z</time>
      </trkpt>
      <trkpt lat="50.56541" lon="3.3387">
        <ele>51.435779</ele>
        <time>2020-06-23T16:53:30.988Z</time>
      </trkpt>
      <trkpt lat="50.5638" lon="3.33666">
        <ele>55.330044</ele>
        <time>2020-06-23T16:54:18.382Z</time>
      </trkpt>
      <trkpt lat="50.56362" lon="3.33628">
        <ele>55.917677</ele>
        <time>2020-06-23T16:54:25.053Z</time>
      </trkpt>
      <trkpt lat="50.56357" lon="3.33607">
        <ele>56.197041</ele>
        <time>2020-06-23T16:54:28.795Z</time>
      </trkpt>
      <trkpt lat="50.56342" lon="3.33546">
        <ele>57.00375</ele>
        <time>2020-06-23T16:54:37.864Z</time>
      </trkpt>
      <trkpt lat="50.5634" lon="3.33518">
        <ele>57.033796</ele>
        <time>2020-06-23T16:54:41.312Z</time>
      </trkpt>
      <trkpt lat="50.56341" lon="3.33509">
        <ele>57.040554</ele>
        <time>2020-06-23T16:54:43.136Z</time>
      </trkpt>
      <trkpt lat="50.56344" lon="3.33501">
        <ele>57.048127</ele>
        <time>2020-06-23T16:54:44.221Z</time>
      </trkpt>
      <trkpt lat="50.5637" lon="3.33472">
        <ele>57.086345</ele>
        <time>2020-06-23T16:54:50.167Z</time>
      </trkpt>
      <trkpt lat="50.56376" lon="3.33442">
        <ele>57.11081</ele>
        <time>2020-06-23T16:54:53.173Z</time>
      </trkpt>
      <trkpt lat="50.56373" lon="3.33427">
        <ele>57.122598</ele>
        <time>2020-06-23T16:54:54.925Z</time>
      </trkpt>
      <trkpt lat="50.56328" lon="3.33362">
        <ele>57.197542</ele>
        <time>2020-06-23T16:55:04.355Z</time>
      </trkpt>
      <trkpt lat="50.56312" lon="3.33339">
        <ele>57.223238</ele>
        <time>2020-06-23T16:55:07.744Z</time>
      </trkpt>
      <trkpt lat="50.56314" lon="3.33337">
        <ele>57.226396</ele>
        <time>2020-06-23T16:55:08.014Z</time>
      </trkpt>
      <trkpt lat="50.56354" lon="3.33297">
        <ele>56.461717</ele>
        <time>2020-06-23T16:55:14.222Z</time>
      </trkpt>
      <trkpt lat="50.56496" lon="3.33212">
        <ele>53.753035</ele>
        <time>2020-06-23T16:55:33.326Z</time>
      </trkpt>
      <trkpt lat="50.56552" lon="3.33201">
        <ele>52.735791</ele>
        <time>2020-06-23T16:55:40.510Z</time>
      </trkpt>
      <trkpt lat="50.56719" lon="3.33203">
        <ele>49.997327</ele>
        <time>2020-06-23T16:56:02.102Z</time>
      </trkpt>
      <trkpt lat="50.56781" lon="3.33189">
        <ele>49.145519</ele>
        <time>2020-06-23T16:56:10.454Z</time>
      </trkpt>
      <trkpt lat="50.56804" lon="3.33182">
        <ele>48.823862</ele>
        <time>2020-06-23T16:56:12.645Z</time>
      </trkpt>
      <trkpt lat="50.56896" lon="3.33157">
        <ele>48.053772</ele>
        <time>2020-06-23T16:56:21.933Z</time>
      </trkpt>
      <trkpt lat="50.56962" lon="3.33182">
        <ele>47.706998</ele>
        <time>2020-06-23T16:56:29.314Z</time>
      </trkpt>
      <trkpt lat="50.56994" lon="3.33179">
        <ele>47.546955</ele>
        <time>2020-06-23T16:56:32.794Z</time>
      </trkpt>
      <trkpt lat="50.56999" lon="3.33177">
        <ele>47.51987</ele>
        <time>2020-06-23T16:56:33.554Z</time>
      </trkpt>
      <trkpt lat="50.5706" lon="3.3315">
        <ele>47.226481</ele>
        <time>2020-06-23T16:56:40.671Z</time>
      </trkpt>
      <trkpt lat="50.57065" lon="3.33148">
        <ele>47.204217</ele>
        <time>2020-06-23T16:56:41.464Z</time>
      </trkpt>
      <trkpt lat="50.57136" lon="3.33117">
        <ele>46.873307</ele>
        <time>2020-06-23T16:56:49.688Z</time>
      </trkpt>
      <trkpt lat="50.57136" lon="3.33117">
        <ele>46.871497</ele>
        <time>2020-06-23T16:56:49.720Z</time>
      </trkpt>
      <trkpt lat="50.57184" lon="3.3311">
        <ele>46.657461</ele>
        <time>2020-06-23T16:56:54.613Z</time>
      </trkpt>
      <trkpt lat="50.57231" lon="3.33117">
        <ele>46.018517</ele>
        <time>2020-06-23T16:56:59.090Z</time>
      </trkpt>
      <trkpt lat="50.57285" lon="3.33125">
        <ele>45.193754</ele>
        <time>2020-06-23T16:57:04.093Z</time>
      </trkpt>
      <trkpt lat="50.57335" lon="3.33133">
        <ele>44.438485</ele>
        <time>2020-06-23T16:57:08.752Z</time>
      </trkpt>
      <trkpt lat="50.57355" lon="3.33136">
        <ele>44.132456</ele>
        <time>2020-06-23T16:57:10.468Z</time>
      </trkpt>
      <trkpt lat="50.57437" lon="3.33153">
        <ele>42.859227</ele>
        <time>2020-06-23T16:57:17.782Z</time>
      </trkpt>
      <trkpt lat="50.57469" lon="3.33147">
        <ele>42.369817</ele>
        <time>2020-06-23T16:57:20.619Z</time>
      </trkpt>
      <trkpt lat="50.57493" lon="3.33143">
        <ele>41.991016</ele>
        <time>2020-06-23T16:57:22.861Z</time>
      </trkpt>
      <trkpt lat="50.57499" lon="3.33143">
        <ele>41.90392</ele>
        <time>2020-06-23T16:57:23.335Z</time>
      </trkpt>
      <trkpt lat="50.57519" lon="3.3314">
        <ele>41.589848</ele>
        <time>2020-06-23T16:57:25.261Z</time>
      </trkpt>
      <trkpt lat="50.57569" lon="3.33153">
        <ele>41.179865</ele>
        <time>2020-06-23T16:57:30.222Z</time>
      </trkpt>
      <trkpt lat="50.57583" lon="3.33156">
        <ele>41.209453</ele>
        <time>2020-06-23T16:57:31.687Z</time>
      </trkpt>
      <trkpt lat="50.57591" lon="3.33158">
        <ele>41.22555</ele>
        <time>2020-06-23T16:57:32.573Z</time>
      </trkpt>
      <trkpt lat="50.57685" lon="3.33131">
        <ele>41.415796</ele>
        <time>2020-06-23T16:57:44.746Z</time>
      </trkpt>
      <trkpt lat="50.57698" lon="3.33122">
        <ele>41.444559</ele>
        <time>2020-06-23T16:57:46.894Z</time>
      </trkpt>
      <trkpt lat="50.57703" lon="3.331">
        <ele>41.47491</ele>
        <time>2020-06-23T16:57:49.426Z</time>
      </trkpt>
      <trkpt lat="50.57699" lon="3.33048">
        <ele>41.870284</ele>
        <time>2020-06-23T16:57:54.637Z</time>
      </trkpt>
      <trkpt lat="50.57674" lon="3.32968">
        <ele>42.827595</ele>
        <time>2020-06-23T16:58:04.095Z</time>
      </trkpt>
      <trkpt lat="50.57647" lon="3.32886">
        <ele>43.821742</ele>
        <time>2020-06-23T16:58:14.896Z</time>
      </trkpt>
      <trkpt lat="50.57648" lon="3.32855">
        <ele>44.154966</ele>
        <time>2020-06-23T16:58:18.586Z</time>
      </trkpt>
      <trkpt lat="50.57664" lon="3.32827">
        <ele>44.55282</ele>
        <time>2020-06-23T16:58:23.036Z</time>
      </trkpt>
      <trkpt lat="50.57713" lon="3.32801">
        <ele>45.405832</ele>
        <time>2020-06-23T16:58:32.397Z</time>
      </trkpt>
      <trkpt lat="50.57737" lon="3.32795">
        <ele>45.804467</ele>
        <time>2020-06-23T16:58:36.558Z</time>
      </trkpt>
      <trkpt lat="50.57766" lon="3.32796">
        <ele>46.282609</ele>
        <time>2020-06-23T16:58:41.484Z</time>
      </trkpt>
      <trkpt lat="50.57787" lon="3.32798">
        <ele>46.631987</ele>
        <time>2020-06-23T16:58:45.071Z</time>
      </trkpt>
      <trkpt lat="50.57804" lon="3.32802">
        <ele>46.907598</ele>
        <time>2020-06-23T16:58:47.796Z</time>
      </trkpt>
      <trkpt lat="50.5782" lon="3.32803">
        <ele>47.167552</ele>
        <time>2020-06-23T16:58:50.413Z</time>
      </trkpt>
      <trkpt lat="50.57829" lon="3.32806">
        <ele>47.319327</ele>
        <time>2020-06-23T16:58:51.932Z</time>
      </trkpt>
      <trkpt lat="50.57837" lon="3.32807">
        <ele>47.454253</ele>
        <time>2020-06-23T16:58:53.601Z</time>
      </trkpt>
      <trkpt lat="50.57888" lon="3.32819">
        <ele>47.914155</ele>
        <time>2020-06-23T16:59:04.396Z</time>
      </trkpt>
      <trkpt lat="50.57985" lon="3.32835">
        <ele>48.74462</ele>
        <time>2020-06-23T16:59:22.227Z</time>
      </trkpt>
      <trkpt lat="50.58011" lon="3.32844">
        <ele>48.981115</ele>
        <time>2020-06-23T16:59:27.041Z</time>
      </trkpt>
      <trkpt lat="50.58197" lon="3.3292">
        <ele>50.088909</ele>
        <time>2020-06-23T17:00:01.262Z</time>
      </trkpt>
      <trkpt lat="50.58206" lon="3.32927">
        <ele>50.184861</ele>
        <time>2020-06-23T17:00:03.160Z</time>
      </trkpt>
      <trkpt lat="50.58216" lon="3.32941">
        <ele>50.304408</ele>
        <time>2020-06-23T17:00:05.579Z</time>
      </trkpt>
      <trkpt lat="50.58226" lon="3.32957">
        <ele>50.431162</ele>
        <time>2020-06-23T17:00:08.208Z</time>
      </trkpt>
      <trkpt lat="50.58232" lon="3.32974">
        <ele>50.548201</ele>
        <time>2020-06-23T17:00:10.565Z</time>
      </trkpt>
      <trkpt lat="50.58316" lon="3.3333">
        <ele>52.956009</ele>
        <time>2020-06-23T17:00:57.798Z</time>
      </trkpt>
      <trkpt lat="50.58339" lon="3.33431">
        <ele>53.685644</ele>
        <time>2020-06-23T17:01:08.392Z</time>
      </trkpt>
      <trkpt lat="50.58372" lon="3.33572">
        <ele>54.611295</ele>
        <time>2020-06-23T17:01:23.026Z</time>
      </trkpt>
      <trkpt lat="50.58425" lon="3.33793">
        <ele>55.788866</ele>
        <time>2020-06-23T17:01:44.417Z</time>
      </trkpt>
      <trkpt lat="50.58453" lon="3.33874">
        <ele>56.132462</ele>
        <time>2020-06-23T17:01:52.467Z</time>
      </trkpt>
      <trkpt lat="50.58504" lon="3.33986">
        <ele>56.575701</ele>
        <time>2020-06-23T17:02:04.103Z</time>
      </trkpt>
      <trkpt lat="50.58506" lon="3.33993">
        <ele>56.596227</ele>
        <time>2020-06-23T17:02:04.852Z</time>
      </trkpt>
      <trkpt lat="50.58519" lon="3.3405">
        <ele>56.751943</ele>
        <time>2020-06-23T17:02:09.881Z</time>
      </trkpt>
      <trkpt lat="50.58607" lon="3.34558">
        <ele>57.950452</ele>
        <time>2020-06-23T17:02:53.624Z</time>
      </trkpt>
      <trkpt lat="50.58621" lon="3.34638">
        <ele>58.09295</ele>
        <time>2020-06-23T17:03:00.449Z</time>
      </trkpt>
      <trkpt lat="50.58708" lon="3.35138">
        <ele>58.403137</ele>
        <time>2020-06-23T17:03:40.984Z</time>
      </trkpt>
      <trkpt lat="50.5871" lon="3.3516">
        <ele>58.385148</ele>
        <time>2020-06-23T17:03:42.427Z</time>
      </trkpt>
      <trkpt lat="50.58776" lon="3.35227">
        <ele>58.285578</ele>
        <time>2020-06-23T17:03:51.223Z</time>
      </trkpt>
      <trkpt lat="50.58832" lon="3.35288">
        <ele>58.197679</ele>
        <time>2020-06-23T17:03:58.597Z</time>
      </trkpt>
      <trkpt lat="50.58895" lon="3.35397">
        <ele>58.076228</ele>
        <time>2020-06-23T17:04:09.662Z</time>
      </trkpt>
      <trkpt lat="50.58979" lon="3.3555">
        <ele>57.928267</ele>
        <time>2020-06-23T17:04:24.513Z</time>
      </trkpt>
      <trkpt lat="50.58986" lon="3.35563">
        <ele>57.916305</ele>
        <time>2020-06-23T17:04:25.749Z</time>
      </trkpt>
      <trkpt lat="50.58991" lon="3.35573">
        <ele>57.907154</ele>
        <time>2020-06-23T17:04:26.693Z</time>
      </trkpt>
      <trkpt lat="50.59062" lon="3.35711">
        <ele>57.668975</ele>
        <time>2020-06-23T17:04:39.767Z</time>
      </trkpt>
      <trkpt lat="50.59122" lon="3.35828">
        <ele>57.361992</ele>
        <time>2020-06-23T17:04:50.499Z</time>
      </trkpt>
      <trkpt lat="50.59197" lon="3.35986">
        <ele>55.971806</ele>
        <time>2020-06-23T17:05:02.981Z</time>
      </trkpt>
      <trkpt lat="50.5922" lon="3.36041">
        <ele>55.396609</ele>
        <time>2020-06-23T17:05:06.785Z</time>
      </trkpt>
      <trkpt lat="50.59106" lon="3.36084">
        <ele>53.165094</ele>
        <time>2020-06-23T17:05:16.974Z</time>
      </trkpt>
      <trkpt lat="50.58841" lon="3.36168">
        <ele>47.355775</ele>
        <time>2020-06-23T17:05:40.308Z</time>
      </trkpt>
      <trkpt lat="50.58819" lon="3.36183">
        <ele>46.956574</ele>
        <time>2020-06-23T17:05:42.470Z</time>
      </trkpt>
      <trkpt lat="50.58798" lon="3.36203">
        <ele>46.718324</ele>
        <time>2020-06-23T17:05:44.747Z</time>
      </trkpt>
      <trkpt lat="50.58772" lon="3.36237">
        <ele>46.391175</ele>
        <time>2020-06-23T17:05:48.005Z</time>
      </trkpt>
      <trkpt lat="50.58739" lon="3.36281">
        <ele>45.97367</ele>
        <time>2020-06-23T17:05:52.318Z</time>
      </trkpt>
      <trkpt lat="50.58707" lon="3.36322">
        <ele>45.575078</ele>
        <time>2020-06-23T17:05:56.628Z</time>
      </trkpt>
      <trkpt lat="50.58551" lon="3.36451">
        <ele>44.575196</ele>
        <time>2020-06-23T17:06:15.825Z</time>
      </trkpt>
      <trkpt lat="50.58538" lon="3.36461">
        <ele>44.503836</ele>
        <time>2020-06-23T17:06:17.374Z</time>
      </trkpt>
      <trkpt lat="50.58512" lon="3.36487">
        <ele>44.261957</ele>
        <time>2020-06-23T17:06:20.528Z</time>
      </trkpt>
      <trkpt lat="50.58362" lon="3.36694">
        <ele>41.349028</ele>
        <time>2020-06-23T17:06:39.330Z</time>
      </trkpt>
      <trkpt lat="50.58359" lon="3.36698">
        <ele>41.242462</ele>
        <time>2020-06-23T17:06:39.708Z</time>
      </trkpt>
      <trkpt lat="50.5834" lon="3.36725">
        <ele>40.561209</ele>
        <time>2020-06-23T17:06:41.875Z</time>
      </trkpt>
      <trkpt lat="50.58309" lon="3.36768">
        <ele>39.478798</ele>
        <time>2020-06-23T17:06:45.326Z</time>
      </trkpt>
      <trkpt lat="50.58291" lon="3.3677">
        <ele>38.999257</ele>
        <time>2020-06-23T17:06:46.789Z</time>
      </trkpt>
      <trkpt lat="50.58269" lon="3.36746">
        <ele>38.315481</ele>
        <time>2020-06-23T17:06:48.970Z</time>
      </trkpt>
      <trkpt lat="50.58265" lon="3.36741">
        <ele>38.180276</ele>
        <time>2020-06-23T17:06:49.362Z</time>
      </trkpt>
      <trkpt lat="50.58261" lon="3.36736">
        <ele>38.030632</ele>
        <time>2020-06-23T17:06:49.797Z</time>
      </trkpt>
      <trkpt lat="50.58252" lon="3.36734">
        <ele>37.784473</ele>
        <time>2020-06-23T17:06:50.582Z</time>
      </trkpt>
      <trkpt lat="50.58201" lon="3.3676">
        <ele>36.250034</ele>
        <time>2020-06-23T17:06:54.806Z</time>
      </trkpt>
      <trkpt lat="50.58179" lon="3.36771">
        <ele>35.539297</ele>
        <time>2020-06-23T17:06:56.717Z</time>
      </trkpt>
      <trkpt lat="50.58176" lon="3.36774">
        <ele>35.447207</ele>
        <time>2020-06-23T17:06:56.948Z</time>
      </trkpt>
      <trkpt lat="50.58103" lon="3.36842">
        <ele>32.892876</ele>
        <time>2020-06-23T17:07:03.974Z</time>
      </trkpt>
      <trkpt lat="50.58091" lon="3.36843">
        <ele>32.554232</ele>
        <time>2020-06-23T17:07:04.906Z</time>
      </trkpt>
      <trkpt lat="50.58139" lon="3.36931">
        <ele>31.222013</ele>
        <time>2020-06-23T17:07:11.285Z</time>
      </trkpt>
      <trkpt lat="50.5819" lon="3.37044">
        <ele>29.896481</ele>
        <time>2020-06-23T17:07:19.671Z</time>
      </trkpt>
      <trkpt lat="50.58206" lon="3.37097">
        <ele>29.360397</ele>
        <time>2020-06-23T17:07:23.510Z</time>
      </trkpt>
      <trkpt lat="50.58213" lon="3.37118">
        <ele>29.25823</ele>
        <time>2020-06-23T17:07:24.990Z</time>
      </trkpt>
      <trkpt lat="50.58268" lon="3.37241">
        <ele>28.594473</ele>
        <time>2020-06-23T17:07:34.833Z</time>
      </trkpt>
      <trkpt lat="50.58294" lon="3.37303">
        <ele>28.2671</ele>
        <time>2020-06-23T17:07:39.676Z</time>
      </trkpt>
      <trkpt lat="50.58315" lon="3.37352">
        <ele>28.067798</ele>
        <time>2020-06-23T17:07:43.691Z</time>
      </trkpt>
      <trkpt lat="50.58326" lon="3.37377">
        <ele>27.997922</ele>
        <time>2020-06-23T17:07:45.736Z</time>
      </trkpt>
      <trkpt lat="50.5833" lon="3.3739">
        <ele>27.966048</ele>
        <time>2020-06-23T17:07:46.656Z</time>
      </trkpt>
      <trkpt lat="50.58381" lon="3.37578">
        <ele>27.492154</ele>
        <time>2020-06-23T17:08:00.886Z</time>
      </trkpt>
      <trkpt lat="50.58403" lon="3.37641">
        <ele>27.46118</ele>
        <time>2020-06-23T17:08:06.133Z</time>
      </trkpt>
      <trkpt lat="50.58426" lon="3.37692">
        <ele>27.442823</ele>
        <time>2020-06-23T17:08:10.861Z</time>
      </trkpt>
      <trkpt lat="50.58519" lon="3.37832">
        <ele>27.337457</ele>
        <time>2020-06-23T17:08:26.331Z</time>
      </trkpt>
      <trkpt lat="50.58545" lon="3.37889">
        <ele>27.253213</ele>
        <time>2020-06-23T17:08:31.469Z</time>
      </trkpt>
      <trkpt lat="50.58581" lon="3.38078">
        <ele>26.968037</ele>
        <time>2020-06-23T17:08:45.432Z</time>
      </trkpt>
      <trkpt lat="50.58584" lon="3.38105">
        <ele>26.899681</ele>
        <time>2020-06-23T17:08:47.254Z</time>
      </trkpt>
      <trkpt lat="50.58586" lon="3.38134">
        <ele>26.826833</ele>
        <time>2020-06-23T17:08:49.236Z</time>
      </trkpt>
      <trkpt lat="50.58583" lon="3.38172">
        <ele>26.731696</ele>
        <time>2020-06-23T17:08:51.755Z</time>
      </trkpt>
      <trkpt lat="50.58584" lon="3.3822">
        <ele>26.61133</ele>
        <time>2020-06-23T17:08:55.021Z</time>
      </trkpt>
      <trkpt lat="50.58588" lon="3.38273">
        <ele>26.477862</ele>
        <time>2020-06-23T17:08:58.669Z</time>
      </trkpt>
      <trkpt lat="50.58589" lon="3.38281">
        <ele>26.45662</ele>
        <time>2020-06-23T17:08:59.203Z</time>
      </trkpt>
      <trkpt lat="50.58608" lon="3.38371">
        <ele>26.289961</ele>
        <time>2020-06-23T17:09:05.863Z</time>
      </trkpt>
      <trkpt lat="50.58611" lon="3.38386">
        <ele>26.273839</ele>
        <time>2020-06-23T17:09:06.927Z</time>
      </trkpt>
      <trkpt lat="50.58672" lon="3.38678">
        <ele>25.865292</ele>
        <time>2020-06-23T17:09:29.596Z</time>
      </trkpt>
      <trkpt lat="50.58676" lon="3.38696">
        <ele>25.826832</ele>
        <time>2020-06-23T17:09:30.918Z</time>
      </trkpt>
      <trkpt lat="50.58686" lon="3.3874">
        <ele>25.732017</ele>
        <time>2020-06-23T17:09:34.230Z</time>
      </trkpt>
      <trkpt lat="50.58693" lon="3.3876">
        <ele>25.684471</ele>
        <time>2020-06-23T17:09:35.787Z</time>
      </trkpt>
      <trkpt lat="50.58696" lon="3.38771">
        <ele>25.661024</ele>
        <time>2020-06-23T17:09:36.591Z</time>
      </trkpt>
      <trkpt lat="50.58705" lon="3.38797">
        <ele>25.601917</ele>
        <time>2020-06-23T17:09:38.673Z</time>
      </trkpt>
      <trkpt lat="50.58706" lon="3.388">
        <ele>25.593654</ele>
        <time>2020-06-23T17:09:38.887Z</time>
      </trkpt>
      <trkpt lat="50.58827" lon="3.39089">
        <ele>24.880309</ele>
        <time>2020-06-23T17:10:02.473Z</time>
      </trkpt>
      <trkpt lat="50.58841" lon="3.39128">
        <ele>25.116684</ele>
        <time>2020-06-23T17:10:06.103Z</time>
      </trkpt>
      <trkpt lat="50.58865" lon="3.39224">
        <ele>25.666948</ele>
        <time>2020-06-23T17:10:15.313Z</time>
      </trkpt>
      <trkpt lat="50.58896" lon="3.39297">
        <ele>26.130497</ele>
        <time>2020-06-23T17:10:23.830Z</time>
      </trkpt>
      <trkpt lat="50.58904" lon="3.39309">
        <ele>26.222952</ele>
        <time>2020-06-23T17:10:25.780Z</time>
      </trkpt>
      <trkpt lat="50.58887" lon="3.39326">
        <ele>26.411732</ele>
        <time>2020-06-23T17:10:29.033Z</time>
      </trkpt>
      <trkpt lat="50.58668" lon="3.3946">
        <ele>31.345726</ele>
        <time>2020-06-23T17:11:12.502Z</time>
      </trkpt>
      <trkpt lat="50.58533" lon="3.39506">
        <ele>34.8465</ele>
        <time>2020-06-23T17:11:40.514Z</time>
      </trkpt>
      <trkpt lat="50.58484" lon="3.39527">
        <ele>36.341923</ele>
        <time>2020-06-23T17:11:51.244Z</time>
      </trkpt>
      <trkpt lat="50.58438" lon="3.3954">
        <ele>37.703613</ele>
        <time>2020-06-23T17:12:00.920Z</time>
      </trkpt>
      <trkpt lat="50.58361" lon="3.39533">
        <ele>40.016115</ele>
        <time>2020-06-23T17:12:18.105Z</time>
      </trkpt>
      <trkpt lat="50.58257" lon="3.39525">
        <ele>43.500215</ele>
        <time>2020-06-23T17:12:40.892Z</time>
      </trkpt>
      <trkpt lat="50.58256" lon="3.39525">
        <ele>43.564415</ele>
        <time>2020-06-23T17:12:41.861Z</time>
      </trkpt>
      <trkpt lat="50.57849" lon="3.39497">
        <ele>57.557128</ele>
        <time>2020-06-23T17:14:15.597Z</time>
      </trkpt>
      <trkpt lat="50.57822" lon="3.39482">
        <ele>58.417988</ele>
        <time>2020-06-23T17:14:21.987Z</time>
      </trkpt>
      <trkpt lat="50.57736" lon="3.39415">
        <ele>60.693312</ele>
        <time>2020-06-23T17:14:41.680Z</time>
      </trkpt>
      <trkpt lat="50.57696" lon="3.39395">
        <ele>61.670664</ele>
        <time>2020-06-23T17:14:49.352Z</time>
      </trkpt>
      <trkpt lat="50.57647" lon="3.39385">
        <ele>62.456716</ele>
        <time>2020-06-23T17:14:57.798Z</time>
      </trkpt>
      <trkpt lat="50.57541" lon="3.39409">
        <ele>62.858429</ele>
        <time>2020-06-23T17:15:12.299Z</time>
      </trkpt>
      <trkpt lat="50.57506" lon="3.39426">
        <ele>62.997167</ele>
        <time>2020-06-23T17:15:16.419Z</time>
      </trkpt>
      <trkpt lat="50.57486" lon="3.39435">
        <ele>63.01603</ele>
        <time>2020-06-23T17:15:18.545Z</time>
      </trkpt>
      <trkpt lat="50.57308" lon="3.39461">
        <ele>60.919685</ele>
        <time>2020-06-23T17:15:35.585Z</time>
      </trkpt>
      <trkpt lat="50.57273" lon="3.39465">
        <ele>60.132101</ele>
        <time>2020-06-23T17:15:38.774Z</time>
      </trkpt>
      <trkpt lat="50.57394" lon="3.40253">
        <ele>48.775476</ele>
        <time>2020-06-23T17:16:23.062Z</time>
      </trkpt>
      <trkpt lat="50.57448" lon="3.40598">
        <ele>45.846261</ele>
        <time>2020-06-23T17:16:44.268Z</time>
      </trkpt>
      <trkpt lat="50.57553" lon="3.41271">
        <ele>42.767053</ele>
        <time>2020-06-23T17:17:29.761Z</time>
      </trkpt>
      <trkpt lat="50.57572" lon="3.41258">
        <ele>42.654936</ele>
        <time>2020-06-23T17:17:32.003Z</time>
      </trkpt>
      <trkpt lat="50.57683" lon="3.41203">
        <ele>42.776863</ele>
        <time>2020-06-23T17:17:45.490Z</time>
      </trkpt>
      <trkpt lat="50.57882" lon="3.41132">
        <ele>43.855142</ele>
        <time>2020-06-23T17:18:14.216Z</time>
      </trkpt>
      <trkpt lat="50.57959" lon="3.41104">
        <ele>44.389889</ele>
        <time>2020-06-23T17:18:25.905Z</time>
      </trkpt>
      <trkpt lat="50.57965" lon="3.41102">
        <ele>44.419964</ele>
        <time>2020-06-23T17:18:26.795Z</time>
      </trkpt>
      <trkpt lat="50.5816" lon="3.41023">
        <ele>45.121416</ele>
        <time>2020-06-23T17:18:53.323Z</time>
      </trkpt>
      <trkpt lat="50.58273" lon="3.40976">
        <ele>44.974685</ele>
        <time>2020-06-23T17:19:06.485Z</time>
      </trkpt>
      <trkpt lat="50.58293" lon="3.40966">
        <ele>44.900349</ele>
        <time>2020-06-23T17:19:08.743Z</time>
      </trkpt>
      <trkpt lat="50.58555" lon="3.41295">
        <ele>41.406417</ele>
        <time>2020-06-23T17:19:54.753Z</time>
      </trkpt>
      <trkpt lat="50.58575" lon="3.41319">
        <ele>41.139093</ele>
        <time>2020-06-23T17:19:58.260Z</time>
      </trkpt>
      <trkpt lat="50.58637" lon="3.41395">
        <ele>40.451337</ele>
        <time>2020-06-23T17:20:09.250Z</time>
      </trkpt>
      <trkpt lat="50.58733" lon="3.41513">
        <ele>39.303771</ele>
        <time>2020-06-23T17:20:26.840Z</time>
      </trkpt>
      <trkpt lat="50.5886" lon="3.41673">
        <ele>37.291924</ele>
        <time>2020-06-23T17:20:49.034Z</time>
      </trkpt>
      <trkpt lat="50.58749" lon="3.41943">
        <ele>32.427317</ele>
        <time>2020-06-23T17:21:14.211Z</time>
      </trkpt>
      <trkpt lat="50.58782" lon="3.41999">
        <ele>30.84465</ele>
        <time>2020-06-23T17:21:19.901Z</time>
      </trkpt>
      <trkpt lat="50.58797" lon="3.4205">
        <ele>29.700517</ele>
        <time>2020-06-23T17:21:23.903Z</time>
      </trkpt>
      <trkpt lat="50.58835" lon="3.42101">
        <ele>28.079642</ele>
        <time>2020-06-23T17:21:29.462Z</time>
      </trkpt>
      <trkpt lat="50.58884" lon="3.42122">
        <ele>26.787701</ele>
        <time>2020-06-23T17:21:35.623Z</time>
      </trkpt>
      <trkpt lat="50.58889" lon="3.42126">
        <ele>26.679196</ele>
        <time>2020-06-23T17:21:36.115Z</time>
      </trkpt>
      <trkpt lat="50.58896" lon="3.42133">
        <ele>26.484835</ele>
        <time>2020-06-23T17:21:37.062Z</time>
      </trkpt>
      <trkpt lat="50.58911" lon="3.42148">
        <ele>26.088062</ele>
        <time>2020-06-23T17:21:39.616Z</time>
      </trkpt>
      <trkpt lat="50.58923" lon="3.42171">
        <ele>25.643107</ele>
        <time>2020-06-23T17:21:41.875Z</time>
      </trkpt>
      <trkpt lat="50.58951" lon="3.42216">
        <ele>24.747905</ele>
        <time>2020-06-23T17:21:46.899Z</time>
      </trkpt>
      <trkpt lat="50.58949" lon="3.42218">
        <ele>24.711798</ele>
        <time>2020-06-23T17:21:47.224Z</time>
      </trkpt>
      <trkpt lat="50.58939" lon="3.42226">
        <ele>24.452998</ele>
        <time>2020-06-23T17:21:48.566Z</time>
      </trkpt>
      <trkpt lat="50.58874" lon="3.42283">
        <ele>23.520387</ele>
        <time>2020-06-23T17:21:55.321Z</time>
      </trkpt>
      <trkpt lat="50.58859" lon="3.42302">
        <ele>23.476085</ele>
        <time>2020-06-23T17:21:57.308Z</time>
      </trkpt>
      <trkpt lat="50.588" lon="3.42427">
        <ele>23.247002</ele>
        <time>2020-06-23T17:22:10.731Z</time>
      </trkpt>
      <trkpt lat="50.58771" lon="3.42463">
        <ele>23.140241</ele>
        <time>2020-06-23T17:22:15.118Z</time>
      </trkpt>
      <trkpt lat="50.58762" lon="3.42474">
        <ele>23.094349</ele>
        <time>2020-06-23T17:22:16.461Z</time>
      </trkpt>
      <trkpt lat="50.58705" lon="3.42549">
        <ele>22.787735</ele>
        <time>2020-06-23T17:22:24.332Z</time>
      </trkpt>
      <trkpt lat="50.58682" lon="3.42584">
        <ele>22.655567</ele>
        <time>2020-06-23T17:22:27.628Z</time>
      </trkpt>
      <trkpt lat="50.58548" lon="3.42867">
        <ele>21.79849</ele>
        <time>2020-06-23T17:22:51.286Z</time>
      </trkpt>
      <trkpt lat="50.58532" lon="3.42893">
        <ele>22.019164</ele>
        <time>2020-06-23T17:22:53.981Z</time>
      </trkpt>
      <trkpt lat="50.58526" lon="3.42903">
        <ele>22.136832</ele>
        <time>2020-06-23T17:22:55.312Z</time>
      </trkpt>
      <trkpt lat="50.5852" lon="3.42912">
        <ele>22.257377</ele>
        <time>2020-06-23T17:22:56.634Z</time>
      </trkpt>
      <trkpt lat="50.58514" lon="3.42922">
        <ele>22.378894</ele>
        <time>2020-06-23T17:22:57.900Z</time>
      </trkpt>
      <trkpt lat="50.58505" lon="3.42937">
        <ele>22.56035</ele>
        <time>2020-06-23T17:22:59.933Z</time>
      </trkpt>
      <trkpt lat="50.58463" lon="3.42999">
        <ele>23.360104</ele>
        <time>2020-06-23T17:23:09.550Z</time>
      </trkpt>
      <trkpt lat="50.58428" lon="3.43047">
        <ele>24.004565</ele>
        <time>2020-06-23T17:23:17.980Z</time>
      </trkpt>
      <trkpt lat="50.584" lon="3.43087">
        <ele>24.63597</ele>
        <time>2020-06-23T17:23:25.801Z</time>
      </trkpt>
      <trkpt lat="50.58283" lon="3.43223">
        <ele>27.504971</ele>
        <time>2020-06-23T17:23:53.743Z</time>
      </trkpt>
      <trkpt lat="50.58237" lon="3.43268">
        <ele>27.675741</ele>
        <time>2020-06-23T17:24:01.015Z</time>
      </trkpt>
      <trkpt lat="50.58228" lon="3.43276">
        <ele>27.637945</ele>
        <time>2020-06-23T17:24:02.110Z</time>
      </trkpt>
      <trkpt lat="50.58196" lon="3.43306">
        <ele>27.493622</ele>
        <time>2020-06-23T17:24:06.272Z</time>
      </trkpt>
      <trkpt lat="50.58189" lon="3.43312">
        <ele>27.461772</ele>
        <time>2020-06-23T17:24:07.117Z</time>
      </trkpt>
      <trkpt lat="50.58139" lon="3.43358">
        <ele>27.239281</ele>
        <time>2020-06-23T17:24:12.667Z</time>
      </trkpt>
      <trkpt lat="50.58116" lon="3.43383">
        <ele>27.131141</ele>
        <time>2020-06-23T17:24:15.295Z</time>
      </trkpt>
      <trkpt lat="50.58071" lon="3.43441">
        <ele>26.867352</ele>
        <time>2020-06-23T17:24:20.820Z</time>
      </trkpt>
      <trkpt lat="50.58042" lon="3.43475">
        <ele>26.706218</ele>
        <time>2020-06-23T17:24:24.446Z</time>
      </trkpt>
      <trkpt lat="50.58034" lon="3.43484">
        <ele>26.662077</ele>
        <time>2020-06-23T17:24:25.537Z</time>
      </trkpt>
      <trkpt lat="50.58026" lon="3.43491">
        <ele>26.620629</ele>
        <time>2020-06-23T17:24:26.622Z</time>
      </trkpt>
      <trkpt lat="50.57998" lon="3.43511">
        <ele>26.482699</ele>
        <time>2020-06-23T17:24:30.074Z</time>
      </trkpt>
      <trkpt lat="50.57973" lon="3.43521">
        <ele>26.364708</ele>
        <time>2020-06-23T17:24:33.429Z</time>
      </trkpt>
      <trkpt lat="50.57906" lon="3.43536">
        <ele>26.753663</ele>
        <time>2020-06-23T17:24:42.891Z</time>
      </trkpt>
      <trkpt lat="50.57881" lon="3.43554">
        <ele>26.96921</ele>
        <time>2020-06-23T17:24:47.568Z</time>
      </trkpt>
      <trkpt lat="50.5781" lon="3.43654">
        <ele>27.711347</ele>
        <time>2020-06-23T17:25:01.488Z</time>
      </trkpt>
      <trkpt lat="50.57809" lon="3.43668">
        <ele>27.654978</ele>
        <time>2020-06-23T17:25:03.020Z</time>
      </trkpt>
      <trkpt lat="50.5781" lon="3.43681">
        <ele>27.597799</ele>
        <time>2020-06-23T17:25:03.982Z</time>
      </trkpt>
      <trkpt lat="50.57825" lon="3.43755">
        <ele>27.268431</ele>
        <time>2020-06-23T17:25:10.456Z</time>
      </trkpt>
      <trkpt lat="50.57824" lon="3.4377">
        <ele>27.202983</ele>
        <time>2020-06-23T17:25:11.565Z</time>
      </trkpt>
      <trkpt lat="50.57821" lon="3.43781">
        <ele>27.153324</ele>
        <time>2020-06-23T17:25:12.590Z</time>
      </trkpt>
      <trkpt lat="50.57788" lon="3.43818">
        <ele>26.881957</ele>
        <time>2020-06-23T17:25:16.422Z</time>
      </trkpt>
      <trkpt lat="50.5775" lon="3.43839">
        <ele>26.617333</ele>
        <time>2020-06-23T17:25:20.013Z</time>
      </trkpt>
      <trkpt lat="50.57725" lon="3.43853">
        <ele>26.259391</ele>
        <time>2020-06-23T17:25:22.339Z</time>
      </trkpt>
      <trkpt lat="50.5768" lon="3.43896">
        <ele>25.035011</ele>
        <time>2020-06-23T17:25:26.855Z</time>
      </trkpt>
      <trkpt lat="50.57669" lon="3.43905">
        <ele>24.733422</ele>
        <time>2020-06-23T17:25:27.996Z</time>
      </trkpt>
      <trkpt lat="50.57659" lon="3.43913">
        <ele>24.471913</ele>
        <time>2020-06-23T17:25:28.868Z</time>
      </trkpt>
      <trkpt lat="50.57543" lon="3.43966">
        <ele>21.802845</ele>
        <time>2020-06-23T17:25:39.185Z</time>
      </trkpt>
      <trkpt lat="50.5749" lon="3.43983">
        <ele>20.857974</ele>
        <time>2020-06-23T17:25:43.818Z</time>
      </trkpt>
      <trkpt lat="50.57433" lon="3.43999">
        <ele>19.857785</ele>
        <time>2020-06-23T17:25:49.153Z</time>
      </trkpt>
      <trkpt lat="50.57352" lon="3.44022">
        <ele>18.775348</ele>
        <time>2020-06-23T17:25:57.112Z</time>
      </trkpt>
      <trkpt lat="50.57069" lon="3.44105">
        <ele>16.639906</ele>
        <time>2020-06-23T17:26:26.324Z</time>
      </trkpt>
      <trkpt lat="50.57006" lon="3.44111">
        <ele>16.350179</ele>
        <time>2020-06-23T17:26:33.668Z</time>
      </trkpt>
      <trkpt lat="50.56984" lon="3.4411">
        <ele>16.278773</ele>
        <time>2020-06-23T17:26:36.266Z</time>
      </trkpt>
      <trkpt lat="50.56941" lon="3.44107">
        <ele>16.136837</ele>
        <time>2020-06-23T17:26:40.963Z</time>
      </trkpt>
      <trkpt lat="50.56897" lon="3.44104">
        <ele>15.991178</ele>
        <time>2020-06-23T17:26:45.708Z</time>
      </trkpt>
      <trkpt lat="50.56843" lon="3.441">
        <ele>15.872779</ele>
        <time>2020-06-23T17:26:51.462Z</time>
      </trkpt>
      <trkpt lat="50.56836" lon="3.44099">
        <ele>15.874799</ele>
        <time>2020-06-23T17:26:52.336Z</time>
      </trkpt>
      <trkpt lat="50.56831" lon="3.44106">
        <ele>15.876445</ele>
        <time>2020-06-23T17:26:52.941Z</time>
      </trkpt>
      <trkpt lat="50.5682" lon="3.44116">
        <ele>15.879658</ele>
        <time>2020-06-23T17:26:54.220Z</time>
      </trkpt>
      <trkpt lat="50.56792" lon="3.44115">
        <ele>15.886988</ele>
        <time>2020-06-23T17:26:57.259Z</time>
      </trkpt>
      <trkpt lat="50.56779" lon="3.44116">
        <ele>15.890537</ele>
        <time>2020-06-23T17:26:58.757Z</time>
      </trkpt>
      <trkpt lat="50.56759" lon="3.44133">
        <ele>15.89636</ele>
        <time>2020-06-23T17:27:01.310Z</time>
      </trkpt>
      <trkpt lat="50.56754" lon="3.44146">
        <ele>15.898935</ele>
        <time>2020-06-23T17:27:02.705Z</time>
      </trkpt>
      <trkpt lat="50.56751" lon="3.44163">
        <ele>15.901907</ele>
        <time>2020-06-23T17:27:04.301Z</time>
      </trkpt>
      <trkpt lat="50.56749" lon="3.44176">
        <ele>15.904139</ele>
        <time>2020-06-23T17:27:05.272Z</time>
      </trkpt>
      <trkpt lat="50.56742" lon="3.44277">
        <ele>16.060927</ele>
        <time>2020-06-23T17:27:14.335Z</time>
      </trkpt>
      <trkpt lat="50.5674" lon="3.44333">
        <ele>16.304853</ele>
        <time>2020-06-23T17:27:19.556Z</time>
      </trkpt>
      <trkpt lat="50.56742" lon="3.44362">
        <ele>16.427328</ele>
        <time>2020-06-23T17:27:22.058Z</time>
      </trkpt>
      <trkpt lat="50.56743" lon="3.44376">
        <ele>16.49115</ele>
        <time>2020-06-23T17:27:23.831Z</time>
      </trkpt>
      <trkpt lat="50.56754" lon="3.44472">
        <ele>16.911006</ele>
        <time>2020-06-23T17:27:32.255Z</time>
      </trkpt>
      <trkpt lat="50.56754" lon="3.44476">
        <ele>16.927026</ele>
        <time>2020-06-23T17:27:33.117Z</time>
      </trkpt>
      <trkpt lat="50.56746" lon="3.44474">
        <ele>16.980543</ele>
        <time>2020-06-23T17:27:34.619Z</time>
      </trkpt>
      <trkpt lat="50.5673" lon="3.44467">
        <ele>17.093995</ele>
        <time>2020-06-23T17:27:37.331Z</time>
      </trkpt>
      <trkpt lat="50.56727" lon="3.44465">
        <ele>17.116811</ele>
        <time>2020-06-23T17:27:37.877Z</time>
      </trkpt>
      <trkpt lat="50.56704" lon="3.4445">
        <ele>17.093592</ele>
        <time>2020-06-23T17:27:42.252Z</time>
      </trkpt>
      <trkpt lat="50.56658" lon="3.44416">
        <ele>16.979917</ele>
        <time>2020-06-23T17:27:50.293Z</time>
      </trkpt>
      <trkpt lat="50.56598" lon="3.44335">
        <ele>16.80224</ele>
        <time>2020-06-23T17:28:01.949Z</time>
      </trkpt>
      <trkpt lat="50.56583" lon="3.44325">
        <ele>16.766308</ele>
        <time>2020-06-23T17:28:04.103Z</time>
      </trkpt>
      <trkpt lat="50.56562" lon="3.44265">
        <ele>16.901455</ele>
        <time>2020-06-23T17:28:10.725Z</time>
      </trkpt>
      <trkpt lat="50.56556" lon="3.44251">
        <ele>16.958876</ele>
        <time>2020-06-23T17:28:12.580Z</time>
      </trkpt>
      <trkpt lat="50.5654" lon="3.44229">
        <ele>17.07307</ele>
        <time>2020-06-23T17:28:15.794Z</time>
      </trkpt>
      <trkpt lat="50.56399" lon="3.4417">
        <ele>18.253498</ele>
        <time>2020-06-23T17:28:43.627Z</time>
      </trkpt>
      <trkpt lat="50.56367" lon="3.44147">
        <ele>18.923939</ele>
        <time>2020-06-23T17:28:52.133Z</time>
      </trkpt>
      <trkpt lat="50.56327" lon="3.44114">
        <ele>19.798717</ele>
        <time>2020-06-23T17:29:03.746Z</time>
      </trkpt>
      <trkpt lat="50.56268" lon="3.44063">
        <ele>21.096439</ele>
        <time>2020-06-23T17:29:18.948Z</time>
      </trkpt>
      <trkpt lat="50.56246" lon="3.44047">
        <ele>21.171013</ele>
        <time>2020-06-23T17:29:23.605Z</time>
      </trkpt>
      <trkpt lat="50.5623" lon="3.44038">
        <ele>21.171764</ele>
        <time>2020-06-23T17:29:27.764Z</time>
      </trkpt>
      <trkpt lat="50.56223" lon="3.44029">
        <ele>21.17217</ele>
        <time>2020-06-23T17:29:35.626Z</time>
      </trkpt>
      <trkpt lat="50.56158" lon="3.43942">
        <ele>21.176014</ele>
        <time>2020-06-23T17:30:52.329Z</time>
      </trkpt>
      <trkpt lat="50.56084" lon="3.43825">
        <ele>20.308907</ele>
        <time>2020-06-23T17:32:20.877Z</time>
      </trkpt>
      <trkpt lat="50.56071" lon="3.43784">
        <ele>19.868288</ele>
        <time>2020-06-23T17:32:44.963Z</time>
      </trkpt>
      <trkpt lat="50.56062" lon="3.43769">
        <ele>19.66794</ele>
        <time>2020-06-23T17:32:46.780Z</time>
      </trkpt>
      <trkpt lat="50.56019" lon="3.43694">
        <ele>18.688414</ele>
        <time>2020-06-23T17:32:55.161Z</time>
      </trkpt>
      <trkpt lat="50.55997" lon="3.43655">
        <ele>18.286295</ele>
        <time>2020-06-23T17:32:59.564Z</time>
      </trkpt>
      <trkpt lat="50.55875" lon="3.43506">
        <ele>16.868134</ele>
        <time>2020-06-23T17:33:21.665Z</time>
      </trkpt>
      <trkpt lat="50.55812" lon="3.43451">
        <ele>16.428679</ele>
        <time>2020-06-23T17:33:31.696Z</time>
      </trkpt>
      <trkpt lat="50.55712" lon="3.43385">
        <ele>15.813348</ele>
        <time>2020-06-23T17:33:47.727Z</time>
      </trkpt>
      <trkpt lat="50.5559" lon="3.43346">
        <ele>16.136334</ele>
        <time>2020-06-23T17:34:08.922Z</time>
      </trkpt>
      <trkpt lat="50.5546" lon="3.43342">
        <ele>16.417484</ele>
        <time>2020-06-23T17:34:32.577Z</time>
      </trkpt>
      <trkpt lat="50.55416" lon="3.4335">
        <ele>16.469264</ele>
        <time>2020-06-23T17:34:40.011Z</time>
      </trkpt>
      <trkpt lat="50.55356" lon="3.43369">
        <ele>16.540448</ele>
        <time>2020-06-23T17:34:49.455Z</time>
      </trkpt>
      <trkpt lat="50.5527" lon="3.43406">
        <ele>16.167632</ele>
        <time>2020-06-23T17:35:02.394Z</time>
      </trkpt>
      <trkpt lat="50.55121" lon="3.43525">
        <ele>15.847868</ele>
        <time>2020-06-23T17:35:27.655Z</time>
      </trkpt>
      <trkpt lat="50.5511" lon="3.43534">
        <ele>15.874592</ele>
        <time>2020-06-23T17:35:29.934Z</time>
      </trkpt>
      <trkpt lat="50.55102" lon="3.43536">
        <ele>15.891321</ele>
        <time>2020-06-23T17:35:31.392Z</time>
      </trkpt>
      <trkpt lat="50.55087" lon="3.43541">
        <ele>15.923921</ele>
        <time>2020-06-23T17:35:34.085Z</time>
      </trkpt>
      <trkpt lat="50.55069" lon="3.43549">
        <ele>15.963823</ele>
        <time>2020-06-23T17:35:37.544Z</time>
      </trkpt>
      <trkpt lat="50.55041" lon="3.43582">
        <ele>16.037571</ele>
        <time>2020-06-23T17:35:43.789Z</time>
      </trkpt>
      <trkpt lat="50.55012" lon="3.43602">
        <ele>16.080794</ele>
        <time>2020-06-23T17:35:49.464Z</time>
      </trkpt>
      <trkpt lat="50.54967" lon="3.43634">
        <ele>16.057447</ele>
        <time>2020-06-23T17:35:58.521Z</time>
      </trkpt>
      <trkpt lat="50.54791" lon="3.43766">
        <ele>15.536386</ele>
        <time>2020-06-23T17:36:28.085Z</time>
      </trkpt>
      <trkpt lat="50.54733" lon="3.43795">
        <ele>15.161173</ele>
        <time>2020-06-23T17:36:36.432Z</time>
      </trkpt>
      <trkpt lat="50.54713" lon="3.43803">
        <ele>15.028639</ele>
        <time>2020-06-23T17:36:39.329Z</time>
      </trkpt>
      <trkpt lat="50.54706" lon="3.43806">
        <ele>14.986129</ele>
        <time>2020-06-23T17:36:40.292Z</time>
      </trkpt>
      <trkpt lat="50.54585" lon="3.43851">
        <ele>14.869772</ele>
        <time>2020-06-23T17:36:59.526Z</time>
      </trkpt>
      <trkpt lat="50.54576" lon="3.43854">
        <ele>14.869114</ele>
        <time>2020-06-23T17:37:00.861Z</time>
      </trkpt>
      <trkpt lat="50.54554" lon="3.43862">
        <ele>14.867375</ele>
        <time>2020-06-23T17:37:05.042Z</time>
      </trkpt>
      <trkpt lat="50.54543" lon="3.43866">
        <ele>14.866511</ele>
        <time>2020-06-23T17:37:07.025Z</time>
      </trkpt>
      <trkpt lat="50.5453" lon="3.43871">
        <ele>14.865472</ele>
        <time>2020-06-23T17:37:09.315Z</time>
      </trkpt>
      <trkpt lat="50.54526" lon="3.43876">
        <ele>14.865087</ele>
        <time>2020-06-23T17:37:10.488Z</time>
      </trkpt>
      <trkpt lat="50.54505" lon="3.43927">
        <ele>15.008598</ele>
        <time>2020-06-23T17:37:17.434Z</time>
      </trkpt>
      <trkpt lat="50.54501" lon="3.4397">
        <ele>15.155399</ele>
        <time>2020-06-23T17:37:22.290Z</time>
      </trkpt>
      <trkpt lat="50.54501" lon="3.43988">
        <ele>15.215374</ele>
        <time>2020-06-23T17:37:24.630Z</time>
      </trkpt>
      <trkpt lat="50.54501" lon="3.43991">
        <ele>15.222721</ele>
        <time>2020-06-23T17:37:24.873Z</time>
      </trkpt>
      <trkpt lat="50.54511" lon="3.44051">
        <ele>15.431702</ele>
        <time>2020-06-23T17:37:32.140Z</time>
      </trkpt>
      <trkpt lat="50.54515" lon="3.44071">
        <ele>15.500607</ele>
        <time>2020-06-23T17:37:34.447Z</time>
      </trkpt>
      <trkpt lat="50.54516" lon="3.44077">
        <ele>15.521731</ele>
        <time>2020-06-23T17:37:35.072Z</time>
      </trkpt>
      <trkpt lat="50.54518" lon="3.44112">
        <ele>15.640128</ele>
        <time>2020-06-23T17:37:39.316Z</time>
      </trkpt>
      <trkpt lat="50.54503" lon="3.44285">
        <ele>16.325902</ele>
        <time>2020-06-23T17:37:58.183Z</time>
      </trkpt>
      <trkpt lat="50.54494" lon="3.44392">
        <ele>16.783107</ele>
        <time>2020-06-23T17:38:11.400Z</time>
      </trkpt>
      <trkpt lat="50.54489" lon="3.44433">
        <ele>16.95731</ele>
        <time>2020-06-23T17:38:16.540Z</time>
      </trkpt>
      <trkpt lat="50.54483" lon="3.44498">
        <ele>17.27512</ele>
        <time>2020-06-23T17:38:24.548Z</time>
      </trkpt>
      <trkpt lat="50.54473" lon="3.44524">
        <ele>17.428613</ele>
        <time>2020-06-23T17:38:28.411Z</time>
      </trkpt>
      <trkpt lat="50.54444" lon="3.44586">
        <ele>17.811321</ele>
        <time>2020-06-23T17:38:37.629Z</time>
      </trkpt>
      <trkpt lat="50.54443" lon="3.44602">
        <ele>17.89159</ele>
        <time>2020-06-23T17:38:39.617Z</time>
      </trkpt>
      <trkpt lat="50.54438" lon="3.44687">
        <ele>18.313275</ele>
        <time>2020-06-23T17:38:49.666Z</time>
      </trkpt>
      <trkpt lat="50.54433" lon="3.44779">
        <ele>18.486904</ele>
        <time>2020-06-23T17:38:59.692Z</time>
      </trkpt>
      <trkpt lat="50.54443" lon="3.44924">
        <ele>18.649249</ele>
        <time>2020-06-23T17:39:14.408Z</time>
      </trkpt>
      <trkpt lat="50.54452" lon="3.44978">
        <ele>18.710345</ele>
        <time>2020-06-23T17:39:20.130Z</time>
      </trkpt>
      <trkpt lat="50.54568" lon="3.45465">
        <ele>21.367836</ele>
        <time>2020-06-23T17:40:22.557Z</time>
      </trkpt>
      <trkpt lat="50.54574" lon="3.45481">
        <ele>21.470072</ele>
        <time>2020-06-23T17:40:24.967Z</time>
      </trkpt>
      <trkpt lat="50.5458" lon="3.45499">
        <ele>21.588952</ele>
        <time>2020-06-23T17:40:27.713Z</time>
      </trkpt>
      <trkpt lat="50.54594" lon="3.45556">
        <ele>21.806257</ele>
        <time>2020-06-23T17:40:35.482Z</time>
      </trkpt>
      <trkpt lat="50.54755" lon="3.46215">
        <ele>23.334448</ele>
        <time>2020-06-23T17:41:53.806Z</time>
      </trkpt>
      <trkpt lat="50.54762" lon="3.4624">
        <ele>23.331969</ele>
        <time>2020-06-23T17:41:56.254Z</time>
      </trkpt>
      <trkpt lat="50.54767" lon="3.46264">
        <ele>23.329613</ele>
        <time>2020-06-23T17:41:58.795Z</time>
      </trkpt>
      <trkpt lat="50.54814" lon="3.46462">
        <ele>22.839552</ele>
        <time>2020-06-23T17:42:17.684Z</time>
      </trkpt>
      <trkpt lat="50.5482" lon="3.46483">
        <ele>22.773082</ele>
        <time>2020-06-23T17:42:19.866Z</time>
      </trkpt>
      <trkpt lat="50.54832" lon="3.46526">
        <ele>22.635177</ele>
        <time>2020-06-23T17:42:24.525Z</time>
      </trkpt>
      <trkpt lat="50.54994" lon="3.47188">
        <ele>24.112813</ele>
        <time>2020-06-23T17:43:43.439Z</time>
      </trkpt>
      <trkpt lat="50.55009" lon="3.47249">
        <ele>24.288859</ele>
        <time>2020-06-23T17:43:50.489Z</time>
      </trkpt>
      <trkpt lat="50.55022" lon="3.47297">
        <ele>24.428514</ele>
        <time>2020-06-23T17:43:56.103Z</time>
      </trkpt>
      <trkpt lat="50.55199" lon="3.4802">
        <ele>28.057609</ele>
        <time>2020-06-23T17:45:26.569Z</time>
      </trkpt>
      <trkpt lat="50.55201" lon="3.48028">
        <ele>28.120027</ele>
        <time>2020-06-23T17:45:27.688Z</time>
      </trkpt>
      <trkpt lat="50.55209" lon="3.48052">
        <ele>28.320039</ele>
        <time>2020-06-23T17:45:30.663Z</time>
      </trkpt>
      <trkpt lat="50.55222" lon="3.48105">
        <ele>28.753293</ele>
        <time>2020-06-23T17:45:36.981Z</time>
      </trkpt>
      <trkpt lat="50.55236" lon="3.48186">
        <ele>29.37109</ele>
        <time>2020-06-23T17:45:46.154Z</time>
      </trkpt>
      <trkpt lat="50.5524" lon="3.48283">
        <ele>30.067911</ele>
        <time>2020-06-23T17:45:56.636Z</time>
      </trkpt>
      <trkpt lat="50.55238" lon="3.48337">
        <ele>30.454853</ele>
        <time>2020-06-23T17:46:01.757Z</time>
      </trkpt>
      <trkpt lat="50.55237" lon="3.48349">
        <ele>30.538858</ele>
        <time>2020-06-23T17:46:02.885Z</time>
      </trkpt>
      <trkpt lat="50.55217" lon="3.48468">
        <ele>31.236082</ele>
        <time>2020-06-23T17:46:13.709Z</time>
      </trkpt>
      <trkpt lat="50.55189" lon="3.48558">
        <ele>31.454341</ele>
        <time>2020-06-23T17:46:22.253Z</time>
      </trkpt>
      <trkpt lat="50.55179" lon="3.48583">
        <ele>31.519302</ele>
        <time>2020-06-23T17:46:24.306Z</time>
      </trkpt>
      <trkpt lat="50.55171" lon="3.48597">
        <ele>31.560682</ele>
        <time>2020-06-23T17:46:26.000Z</time>
      </trkpt>
      <trkpt lat="50.54961" lon="3.48931">
        <ele>32.448606</ele>
        <time>2020-06-23T17:47:03.778Z</time>
      </trkpt>
      <trkpt lat="50.54706" lon="3.49335">
        <ele>34.5526</ele>
        <time>2020-06-23T17:47:51.317Z</time>
      </trkpt>
      <trkpt lat="50.54686" lon="3.49366">
        <ele>35.001185</ele>
        <time>2020-06-23T17:47:55.797Z</time>
      </trkpt>
      <trkpt lat="50.54671" lon="3.4939">
        <ele>35.34852</ele>
        <time>2020-06-23T17:47:59.842Z</time>
      </trkpt>
      <trkpt lat="50.54654" lon="3.49417">
        <ele>35.741103</ele>
        <time>2020-06-23T17:48:05.359Z</time>
      </trkpt>
      <trkpt lat="50.54591" lon="3.49543">
        <ele>38.14465</ele>
        <time>2020-06-23T17:48:30.954Z</time>
      </trkpt>
      <trkpt lat="50.54581" lon="3.49558">
        <ele>38.56662</ele>
        <time>2020-06-23T17:48:34.922Z</time>
      </trkpt>
      <trkpt lat="50.544" lon="3.49869">
        <ele>46.178418</ele>
        <time>2020-06-23T17:49:44.785Z</time>
      </trkpt>
      <trkpt lat="50.53916" lon="3.5065">
        <ele>55.244851</ele>
        <time>2020-06-23T17:52:07.211Z</time>
      </trkpt>
      <trkpt lat="50.53607" lon="3.51119">
        <ele>51.142681</ele>
        <time>2020-06-23T17:53:06.547Z</time>
      </trkpt>
      <trkpt lat="50.53174" lon="3.51795">
        <ele>37.077984</ele>
        <time>2020-06-23T17:54:20.936Z</time>
      </trkpt>
      <trkpt lat="50.53121" lon="3.51857">
        <ele>35.858764</ele>
        <time>2020-06-23T17:54:29.824Z</time>
      </trkpt>
      <trkpt lat="50.53085" lon="3.51914">
        <ele>35.250159</ele>
        <time>2020-06-23T17:54:36.853Z</time>
      </trkpt>
      <trkpt lat="50.53083" lon="3.51907">
        <ele>35.217981</ele>
        <time>2020-06-23T17:54:37.534Z</time>
      </trkpt>
      <trkpt lat="50.53076" lon="3.51886">
        <ele>35.113469</ele>
        <time>2020-06-23T17:54:39.718Z</time>
      </trkpt>
      <trkpt lat="50.53075" lon="3.51882">
        <ele>35.096264</ele>
        <time>2020-06-23T17:54:40.085Z</time>
      </trkpt>
      <trkpt lat="50.53058" lon="3.51826">
        <ele>34.829042</ele>
        <time>2020-06-23T17:54:45.803Z</time>
      </trkpt>
      <trkpt lat="50.5305" lon="3.5183">
        <ele>34.772443</ele>
        <time>2020-06-23T17:54:47.000Z</time>
      </trkpt>
      <trkpt lat="50.5304" lon="3.51833">
        <ele>34.699875</ele>
        <time>2020-06-23T17:54:48.574Z</time>
      </trkpt>
      <trkpt lat="50.53017" lon="3.51852">
        <ele>34.525002</ele>
        <time>2020-06-23T17:54:52.385Z</time>
      </trkpt>
      <trkpt lat="50.52951" lon="3.51909">
        <ele>34.165313</ele>
        <time>2020-06-23T17:55:03.737Z</time>
      </trkpt>
      <trkpt lat="50.52925" lon="3.51854">
        <ele>34.087836</ele>
        <time>2020-06-23T17:55:10.291Z</time>
      </trkpt>
      <trkpt lat="50.52908" lon="3.518">
        <ele>34.019676</ele>
        <time>2020-06-23T17:55:16.204Z</time>
      </trkpt>
      <trkpt lat="50.52879" lon="3.51748">
        <ele>33.941213</ele>
        <time>2020-06-23T17:55:23.188Z</time>
      </trkpt>
      <trkpt lat="50.52867" lon="3.51709">
        <ele>33.925981</ele>
        <time>2020-06-23T17:55:27.551Z</time>
      </trkpt>
      <trkpt lat="50.52842" lon="3.51636">
        <ele>34.292833</ele>
        <time>2020-06-23T17:55:37.384Z</time>
      </trkpt>
      <trkpt lat="50.5284" lon="3.51629">
        <ele>34.326038</ele>
        <time>2020-06-23T17:55:38.378Z</time>
      </trkpt>
      <trkpt lat="50.52822" lon="3.51588">
        <ele>34.542809</ele>
        <time>2020-06-23T17:55:44.649Z</time>
      </trkpt>
      <trkpt lat="50.52783" lon="3.5152">
        <ele>34.951478</ele>
        <time>2020-06-23T17:55:55.974Z</time>
      </trkpt>
      <trkpt lat="50.5277" lon="3.51505">
        <ele>35.059549</ele>
        <time>2020-06-23T17:55:58.750Z</time>
      </trkpt>
      <trkpt lat="50.52729" lon="3.51449">
        <ele>35.216953</ele>
        <time>2020-06-23T17:56:08.330Z</time>
      </trkpt>
      <trkpt lat="50.52774" lon="3.51363">
        <ele>35.337476</ele>
        <time>2020-06-23T17:56:20.151Z</time>
      </trkpt>
      <trkpt lat="50.52814" lon="3.51288">
        <ele>35.443956</ele>
        <time>2020-06-23T17:56:30.320Z</time>
      </trkpt>
      <trkpt lat="50.52789" lon="3.51285">
        <ele>35.568599</ele>
        <time>2020-06-23T17:56:34.240Z</time>
      </trkpt>
      <trkpt lat="50.52799" lon="3.51269">
        <ele>35.650703</ele>
        <time>2020-06-23T17:56:36.251Z</time>
      </trkpt>
      <trkpt lat="50.52867" lon="3.51134">
        <ele>36.268914</ele>
        <time>2020-06-23T17:56:54.767Z</time>
      </trkpt>
      <trkpt lat="50.52966" lon="3.50894">
        <ele>39.531401</ele>
        <time>2020-06-23T17:57:36.251Z</time>
      </trkpt>
      <trkpt lat="50.52998" lon="3.50805">
        <ele>40.925151</ele>
        <time>2020-06-23T17:57:52.131Z</time>
      </trkpt>
      <trkpt lat="50.53015" lon="3.50751">
        <ele>41.767036</ele>
        <time>2020-06-23T17:58:01.326Z</time>
      </trkpt>
      <trkpt lat="50.5304" lon="3.50659">
        <ele>43.184286</ele>
        <time>2020-06-23T17:58:16.477Z</time>
      </trkpt>
      <trkpt lat="50.53061" lon="3.50585">
        <ele>44.255482</ele>
        <time>2020-06-23T17:58:27.991Z</time>
      </trkpt>
      <trkpt lat="50.53077" lon="3.50493">
        <ele>44.614285</ele>
        <time>2020-06-23T17:58:40.180Z</time>
      </trkpt>
      <trkpt lat="50.53063" lon="3.50413">
        <ele>44.929198</ele>
        <time>2020-06-23T17:58:50.501Z</time>
      </trkpt>
      <trkpt lat="50.53014" lon="3.50277">
        <ele>44.675128</ele>
        <time>2020-06-23T17:59:05.295Z</time>
      </trkpt>
      <trkpt lat="50.53009" lon="3.50267">
        <ele>44.546059</ele>
        <time>2020-06-23T17:59:06.407Z</time>
      </trkpt>
      <trkpt lat="50.53005" lon="3.50257">
        <ele>44.416139</ele>
        <time>2020-06-23T17:59:07.449Z</time>
      </trkpt>
      <trkpt lat="50.52993" lon="3.50234">
        <ele>44.112196</ele>
        <time>2020-06-23T17:59:09.757Z</time>
      </trkpt>
      <trkpt lat="50.52963" lon="3.50179">
        <ele>43.345269</ele>
        <time>2020-06-23T17:59:13.902Z</time>
      </trkpt>
      <trkpt lat="50.52955" lon="3.50169">
        <ele>43.179172</ele>
        <time>2020-06-23T17:59:14.799Z</time>
      </trkpt>
      <trkpt lat="50.52947" lon="3.5016">
        <ele>43.016425</ele>
        <time>2020-06-23T17:59:15.609Z</time>
      </trkpt>
      <trkpt lat="50.52899" lon="3.50114">
        <ele>42.006235</ele>
        <time>2020-06-23T17:59:20.419Z</time>
      </trkpt>
      <trkpt lat="50.52877" lon="3.50086">
        <ele>41.373377</ele>
        <time>2020-06-23T17:59:22.741Z</time>
      </trkpt>
      <trkpt lat="50.52862" lon="3.50053">
        <ele>40.785984</ele>
        <time>2020-06-23T17:59:24.895Z</time>
      </trkpt>
      <trkpt lat="50.52823" lon="3.49916">
        <ele>38.645709</ele>
        <time>2020-06-23T17:59:33.137Z</time>
      </trkpt>
      <trkpt lat="50.52816" lon="3.49901">
        <ele>38.380856</ele>
        <time>2020-06-23T17:59:34.244Z</time>
      </trkpt>
      <trkpt lat="50.52782" lon="3.49813">
        <ele>37.796101</ele>
        <time>2020-06-23T17:59:40.604Z</time>
      </trkpt>
      <trkpt lat="50.52741" lon="3.4971">
        <ele>37.184962</ele>
        <time>2020-06-23T17:59:48.474Z</time>
      </trkpt>
      <trkpt lat="50.5273" lon="3.49651">
        <ele>36.875704</ele>
        <time>2020-06-23T17:59:52.784Z</time>
      </trkpt>
      <trkpt lat="50.52721" lon="3.49559">
        <ele>37.047824</ele>
        <time>2020-06-23T17:59:59.745Z</time>
      </trkpt>
      <trkpt lat="50.52714" lon="3.49533">
        <ele>37.111923</ele>
        <time>2020-06-23T18:00:01.965Z</time>
      </trkpt>
      <trkpt lat="50.52712" lon="3.49529">
        <ele>37.122674</ele>
        <time>2020-06-23T18:00:02.422Z</time>
      </trkpt>
      <trkpt lat="50.52677" lon="3.49452">
        <ele>37.329595</ele>
        <time>2020-06-23T18:00:10.289Z</time>
      </trkpt>
      <trkpt lat="50.52627" lon="3.49401">
        <ele>37.776074</ele>
        <time>2020-06-23T18:00:18.933Z</time>
      </trkpt>
      <trkpt lat="50.52606" lon="3.49393">
        <ele>38.148361</ele>
        <time>2020-06-23T18:00:22.254Z</time>
      </trkpt>
      <trkpt lat="50.5252" lon="3.49298">
        <ele>39.946069</ele>
        <time>2020-06-23T18:00:41.304Z</time>
      </trkpt>
      <trkpt lat="50.52492" lon="3.49281">
        <ele>40.46692</ele>
        <time>2020-06-23T18:00:47.259Z</time>
      </trkpt>
      <trkpt lat="50.52468" lon="3.49266">
        <ele>40.64609</ele>
        <time>2020-06-23T18:00:52.093Z</time>
      </trkpt>
      <trkpt lat="50.52437" lon="3.49238">
        <ele>40.787434</ele>
        <time>2020-06-23T18:00:58.505Z</time>
      </trkpt>
      <trkpt lat="50.524" lon="3.49201">
        <ele>40.957899</ele>
        <time>2020-06-23T18:01:05.811Z</time>
      </trkpt>
      <trkpt lat="50.5212" lon="3.50308">
        <ele>31.671617</ele>
        <time>2020-06-23T18:02:16.564Z</time>
      </trkpt>
      <trkpt lat="50.5212" lon="3.50308">
        <ele>31.671617</ele>
        <time>2020-06-23T18:02:16.578Z</time>
      </trkpt>
      <trkpt lat="50.5212" lon="3.50308">
        <ele>31.671617</ele>
        <time>2020-06-23T18:02:16.580Z</time>
      </trkpt>
      <trkpt lat="50.5208" lon="3.5027">
        <ele>30.975158</ele>
        <time>2020-06-23T18:02:22.639Z</time>
      </trkpt>
      <trkpt lat="50.51998" lon="3.50182">
        <ele>29.618679</ele>
        <time>2020-06-23T18:02:35.627Z</time>
      </trkpt>
      <trkpt lat="50.51944" lon="3.50099">
        <ele>28.585357</ele>
        <time>2020-06-23T18:02:45.957Z</time>
      </trkpt>
      <trkpt lat="50.51919" lon="3.50084">
        <ele>28.370033</ele>
        <time>2020-06-23T18:02:49.641Z</time>
      </trkpt>
      <trkpt lat="50.51831" lon="3.50116">
        <ele>27.626941</ele>
        <time>2020-06-23T18:03:02.487Z</time>
      </trkpt>
      <trkpt lat="50.51737" lon="3.50105">
        <ele>26.966469</ele>
        <time>2020-06-23T18:03:16.169Z</time>
      </trkpt>
      <trkpt lat="50.51703" lon="3.50087">
        <ele>26.79784</ele>
        <time>2020-06-23T18:03:21.488Z</time>
      </trkpt>
      <trkpt lat="50.51699" lon="3.50081">
        <ele>26.772014</ele>
        <time>2020-06-23T18:03:22.259Z</time>
      </trkpt>
      <trkpt lat="50.51699" lon="3.50068">
        <ele>26.735702</ele>
        <time>2020-06-23T18:03:23.351Z</time>
      </trkpt>
      <trkpt lat="50.51701" lon="3.5002">
        <ele>26.592933</ele>
        <time>2020-06-23T18:03:28.040Z</time>
      </trkpt>
      <trkpt lat="50.51683" lon="3.49975">
        <ele>26.434312</ele>
        <time>2020-06-23T18:03:33.295Z</time>
      </trkpt>
      <trkpt lat="50.51668" lon="3.49964">
        <ele>26.357516</ele>
        <time>2020-06-23T18:03:35.826Z</time>
      </trkpt>
      <trkpt lat="50.51651" lon="3.49965">
        <ele>26.274682</ele>
        <time>2020-06-23T18:03:38.510Z</time>
      </trkpt>
      <trkpt lat="50.51614" lon="3.4998">
        <ele>26.12593</ele>
        <time>2020-06-23T18:03:44.139Z</time>
      </trkpt>
      <trkpt lat="50.51534" lon="3.50031">
        <ele>25.78639</ele>
        <time>2020-06-23T18:03:57.315Z</time>
      </trkpt>
      <trkpt lat="50.51493" lon="3.50033">
        <ele>25.622832</ele>
        <time>2020-06-23T18:04:03.466Z</time>
      </trkpt>
      <trkpt lat="50.51403" lon="3.50027">
        <ele>25.098133</ele>
        <time>2020-06-23T18:04:16.616Z</time>
      </trkpt>
      <trkpt lat="50.51388" lon="3.50031">
        <ele>25.003584</ele>
        <time>2020-06-23T18:04:18.809Z</time>
      </trkpt>
      <trkpt lat="50.51365" lon="3.50016">
        <ele>24.851905</ele>
        <time>2020-06-23T18:04:21.259Z</time>
      </trkpt>
      <trkpt lat="50.51349" lon="3.49997">
        <ele>24.727065</ele>
        <time>2020-06-23T18:04:23.338Z</time>
      </trkpt>
      <trkpt lat="50.51329" lon="3.49959">
        <ele>24.528532</ele>
        <time>2020-06-23T18:04:26.719Z</time>
      </trkpt>
      <trkpt lat="50.51322" lon="3.49943">
        <ele>24.454984</ele>
        <time>2020-06-23T18:04:27.938Z</time>
      </trkpt>
      <trkpt lat="50.51323" lon="3.49797">
        <ele>23.926986</ele>
        <time>2020-06-23T18:04:37.919Z</time>
      </trkpt>
      <trkpt lat="50.51322" lon="3.49739">
        <ele>23.717435</ele>
        <time>2020-06-23T18:04:41.850Z</time>
      </trkpt>
      <trkpt lat="50.51308" lon="3.49699">
        <ele>23.554166</ele>
        <time>2020-06-23T18:04:44.795Z</time>
      </trkpt>
      <trkpt lat="50.5129" lon="3.49667">
        <ele>23.388343</ele>
        <time>2020-06-23T18:04:47.580Z</time>
      </trkpt>
      <trkpt lat="50.51284" lon="3.49655">
        <ele>23.297232</ele>
        <time>2020-06-23T18:04:48.647Z</time>
      </trkpt>
      <trkpt lat="50.51281" lon="3.49649">
        <ele>23.258279</ele>
        <time>2020-06-23T18:04:49.091Z</time>
      </trkpt>
      <trkpt lat="50.51271" lon="3.4958">
        <ele>22.866151</ele>
        <time>2020-06-23T18:04:53.709Z</time>
      </trkpt>
      <trkpt lat="50.51269" lon="3.49574">
        <ele>22.82555</ele>
        <time>2020-06-23T18:04:54.168Z</time>
      </trkpt>
      <trkpt lat="50.51219" lon="3.4955">
        <ele>22.369685</ele>
        <time>2020-06-23T18:04:59.319Z</time>
      </trkpt>
      <trkpt lat="50.51187" lon="3.49526">
        <ele>22.066078</ele>
        <time>2020-06-23T18:05:02.742Z</time>
      </trkpt>
      <trkpt lat="50.51132" lon="3.49497">
        <ele>21.595147</ele>
        <time>2020-06-23T18:05:08.473Z</time>
      </trkpt>
      <trkpt lat="50.51121" lon="3.49492">
        <ele>21.508045</ele>
        <time>2020-06-23T18:05:09.548Z</time>
      </trkpt>
      <trkpt lat="50.51048" lon="3.49357">
        <ele>20.644149</ele>
        <time>2020-06-23T18:05:21.072Z</time>
      </trkpt>
      <trkpt lat="50.51039" lon="3.49338">
        <ele>20.52868</ele>
        <time>2020-06-23T18:05:22.645Z</time>
      </trkpt>
      <trkpt lat="50.51019" lon="3.49366">
        <ele>20.404838</ele>
        <time>2020-06-23T18:05:26.462Z</time>
      </trkpt>
      <trkpt lat="50.51002" lon="3.49385">
        <ele>20.322784</ele>
        <time>2020-06-23T18:05:29.613Z</time>
      </trkpt>
      <trkpt lat="50.50995" lon="3.49391">
        <ele>20.290434</ele>
        <time>2020-06-23T18:05:30.852Z</time>
      </trkpt>
      <trkpt lat="50.50989" lon="3.4938">
        <ele>20.253814</ele>
        <time>2020-06-23T18:05:32.184Z</time>
      </trkpt>
      <trkpt lat="50.50868" lon="3.49157">
        <ele>19.619367</ele>
        <time>2020-06-23T18:06:00.918Z</time>
      </trkpt>
      <trkpt lat="50.50838" lon="3.49072">
        <ele>19.469932</ele>
        <time>2020-06-23T18:06:10.549Z</time>
      </trkpt>
      <trkpt lat="50.50832" lon="3.49054">
        <ele>19.439356</ele>
        <time>2020-06-23T18:06:12.686Z</time>
      </trkpt>
      <trkpt lat="50.50833" lon="3.4904">
        <ele>19.41784</ele>
        <time>2020-06-23T18:06:13.991Z</time>
      </trkpt>
      <trkpt lat="50.50869" lon="3.48988">
        <ele>19.266635</ele>
        <time>2020-06-23T18:06:21.538Z</time>
      </trkpt>
      <trkpt lat="50.50883" lon="3.48928">
        <ele>19.092151</ele>
        <time>2020-06-23T18:06:27.774Z</time>
      </trkpt>
      <trkpt lat="50.50891" lon="3.48849">
        <ele>18.872825</ele>
        <time>2020-06-23T18:06:35.565Z</time>
      </trkpt>
      <trkpt lat="50.50871" lon="3.48813">
        <ele>18.741844</ele>
        <time>2020-06-23T18:06:40.009Z</time>
      </trkpt>
      <trkpt lat="50.50863" lon="3.48799">
        <ele>18.690337</ele>
        <time>2020-06-23T18:06:41.746Z</time>
      </trkpt>
      <trkpt lat="50.50851" lon="3.48822">
        <ele>18.610987</ele>
        <time>2020-06-23T18:06:43.673Z</time>
      </trkpt>
      <trkpt lat="50.50848" lon="3.48828">
        <ele>18.588432</ele>
        <time>2020-06-23T18:06:44.208Z</time>
      </trkpt>
      <trkpt lat="50.50829" lon="3.48861">
        <ele>18.423914</ele>
        <time>2020-06-23T18:06:47.151Z</time>
      </trkpt>
      <trkpt lat="50.50795" lon="3.48891">
        <ele>18.188231</ele>
        <time>2020-06-23T18:06:51.140Z</time>
      </trkpt>
      <trkpt lat="50.50772" lon="3.48889">
        <ele>18.047891</ele>
        <time>2020-06-23T18:06:53.514Z</time>
      </trkpt>
      <trkpt lat="50.50762" lon="3.48885">
        <ele>17.985096</ele>
        <time>2020-06-23T18:06:54.575Z</time>
      </trkpt>
      <trkpt lat="50.5075" lon="3.48876">
        <ele>17.90369</ele>
        <time>2020-06-23T18:06:55.918Z</time>
      </trkpt>
      <trkpt lat="50.50697" lon="3.48851">
        <ele>17.564796</ele>
        <time>2020-06-23T18:07:01.748Z</time>
      </trkpt>
      <trkpt lat="50.50675" lon="3.48848">
        <ele>17.446442</ele>
        <time>2020-06-23T18:07:03.992Z</time>
      </trkpt>
      <trkpt lat="50.50664" lon="3.48854">
        <ele>17.396701</ele>
        <time>2020-06-23T18:07:05.300Z</time>
      </trkpt>
      <trkpt lat="50.50654" lon="3.48871">
        <ele>17.335098</ele>
        <time>2020-06-23T18:07:06.851Z</time>
      </trkpt>
      <trkpt lat="50.5064" lon="3.48922">
        <ele>17.190377</ele>
        <time>2020-06-23T18:07:10.557Z</time>
      </trkpt>
      <trkpt lat="50.50629" lon="3.48944">
        <ele>17.115906</ele>
        <time>2020-06-23T18:07:12.496Z</time>
      </trkpt>
      <trkpt lat="50.50551" lon="3.4902">
        <ele>16.733197</ele>
        <time>2020-06-23T18:07:22.659Z</time>
      </trkpt>
      <trkpt lat="50.50468" lon="3.49131">
        <ele>16.567877</ele>
        <time>2020-06-23T18:07:34.792Z</time>
      </trkpt>
      <trkpt lat="50.50399" lon="3.49173">
        <ele>16.460282</ele>
        <time>2020-06-23T18:07:43.391Z</time>
      </trkpt>
      <trkpt lat="50.5033" lon="3.49228">
        <ele>16.491628</ele>
        <time>2020-06-23T18:07:52.923Z</time>
      </trkpt>
      <trkpt lat="50.50301" lon="3.49249">
        <ele>16.504774</ele>
        <time>2020-06-23T18:07:56.861Z</time>
      </trkpt>
      <trkpt lat="50.50284" lon="3.49261">
        <ele>16.51241</ele>
        <time>2020-06-23T18:07:59.089Z</time>
      </trkpt>
      <trkpt lat="50.50222" lon="3.493">
        <ele>16.509129</ele>
        <time>2020-06-23T18:08:07.077Z</time>
      </trkpt>
      <trkpt lat="50.50197" lon="3.49315">
        <ele>16.471807</ele>
        <time>2020-06-23T18:08:10.161Z</time>
      </trkpt>
      <trkpt lat="50.50191" lon="3.49319">
        <ele>16.462014</ele>
        <time>2020-06-23T18:08:11.008Z</time>
      </trkpt>
      <trkpt lat="50.50184" lon="3.49323">
        <ele>16.45136</ele>
        <time>2020-06-23T18:08:11.797Z</time>
      </trkpt>
      <trkpt lat="50.50056" lon="3.49423">
        <ele>16.279668</ele>
        <time>2020-06-23T18:08:27.733Z</time>
      </trkpt>
      <trkpt lat="50.49891" lon="3.49621">
        <ele>16.476483</ele>
        <time>2020-06-23T18:08:52.854Z</time>
      </trkpt>
      <trkpt lat="50.49885" lon="3.49626">
        <ele>16.498284</ele>
        <time>2020-06-23T18:08:53.703Z</time>
      </trkpt>
      <trkpt lat="50.49872" lon="3.49635">
        <ele>16.552707</ele>
        <time>2020-06-23T18:08:55.717Z</time>
      </trkpt>
      <trkpt lat="50.49868" lon="3.49638">
        <ele>16.566161</ele>
        <time>2020-06-23T18:08:56.199Z</time>
      </trkpt>
      <trkpt lat="50.4984" lon="3.49655">
        <ele>16.67517</ele>
        <time>2020-06-23T18:09:00.279Z</time>
      </trkpt>
      <trkpt lat="50.49786" lon="3.49689">
        <ele>16.887955</ele>
        <time>2020-06-23T18:09:08.270Z</time>
      </trkpt>
      <trkpt lat="50.49674" lon="3.49784">
        <ele>17.10558</ele>
        <time>2020-06-23T18:09:24.848Z</time>
      </trkpt>
      <trkpt lat="50.49561" lon="3.49862">
        <ele>16.952142</ele>
        <time>2020-06-23T18:09:38.669Z</time>
      </trkpt>
      <trkpt lat="50.49552" lon="3.49866">
        <ele>16.903968</ele>
        <time>2020-06-23T18:09:39.710Z</time>
      </trkpt>
      <trkpt lat="50.49546" lon="3.49865">
        <ele>16.878453</ele>
        <time>2020-06-23T18:09:40.222Z</time>
      </trkpt>
      <trkpt lat="50.49496" lon="3.49786">
        <ele>16.536762</ele>
        <time>2020-06-23T18:09:47.678Z</time>
      </trkpt>
      <trkpt lat="50.49442" lon="3.49791">
        <ele>16.312039</ele>
        <time>2020-06-23T18:09:53.323Z</time>
      </trkpt>
      <trkpt lat="50.4937" lon="3.49783">
        <ele>16.177534</ele>
        <time>2020-06-23T18:10:01.000Z</time>
      </trkpt>
      <trkpt lat="50.49356" lon="3.49781">
        <ele>16.150556</ele>
        <time>2020-06-23T18:10:02.565Z</time>
      </trkpt>
      <trkpt lat="50.49327" lon="3.49756">
        <ele>16.088914</ele>
        <time>2020-06-23T18:10:06.540Z</time>
      </trkpt>
      <trkpt lat="50.49308" lon="3.49756">
        <ele>16.054403</ele>
        <time>2020-06-23T18:10:08.917Z</time>
      </trkpt>
      <trkpt lat="50.49288" lon="3.49767">
        <ele>16.014739</ele>
        <time>2020-06-23T18:10:11.579Z</time>
      </trkpt>
      <trkpt lat="50.49284" lon="3.49771">
        <ele>16.005478</ele>
        <time>2020-06-23T18:10:12.224Z</time>
      </trkpt>
      <trkpt lat="50.49282" lon="3.49773">
        <ele>16.000737</ele>
        <time>2020-06-23T18:10:12.673Z</time>
      </trkpt>
      <trkpt lat="50.49208" lon="3.49841">
        <ele>16.291299</ele>
        <time>2020-06-23T18:10:23.483Z</time>
      </trkpt>
      <trkpt lat="50.49201" lon="3.49848">
        <ele>16.321072</ele>
        <time>2020-06-23T18:10:24.712Z</time>
      </trkpt>
      <trkpt lat="50.49196" lon="3.49853">
        <ele>16.339769</ele>
        <time>2020-06-23T18:10:25.411Z</time>
      </trkpt>
      <trkpt lat="50.49191" lon="3.49853">
        <ele>16.358854</ele>
        <time>2020-06-23T18:10:26.186Z</time>
      </trkpt>
      <trkpt lat="50.49094" lon="3.49838">
        <ele>16.59323</ele>
        <time>2020-06-23T18:10:39.014Z</time>
      </trkpt>
      <trkpt lat="50.49082" lon="3.49844">
        <ele>16.581494</ele>
        <time>2020-06-23T18:10:40.645Z</time>
      </trkpt>
      <trkpt lat="50.49" lon="3.49921">
        <ele>16.494454</ele>
        <time>2020-06-23T18:10:51.577Z</time>
      </trkpt>
      <trkpt lat="50.48953" lon="3.49914">
        <ele>16.451541</ele>
        <time>2020-06-23T18:10:56.621Z</time>
      </trkpt>
      <trkpt lat="50.4895" lon="3.49913">
        <ele>16.448023</ele>
        <time>2020-06-23T18:10:56.884Z</time>
      </trkpt>
      <trkpt lat="50.48934" lon="3.49909">
        <ele>16.399243</ele>
        <time>2020-06-23T18:10:58.645Z</time>
      </trkpt>
      <trkpt lat="50.48927" lon="3.49907">
        <ele>16.376699</ele>
        <time>2020-06-23T18:10:59.471Z</time>
      </trkpt>
      <trkpt lat="50.48914" lon="3.49904">
        <ele>16.337956</ele>
        <time>2020-06-23T18:11:00.861Z</time>
      </trkpt>
      <trkpt lat="50.48911" lon="3.49902">
        <ele>16.327012</ele>
        <time>2020-06-23T18:11:01.298Z</time>
      </trkpt>
      <trkpt lat="50.48908" lon="3.49897">
        <ele>16.313622</ele>
        <time>2020-06-23T18:11:01.733Z</time>
      </trkpt>
      <trkpt lat="50.48906" lon="3.49893">
        <ele>16.30245</ele>
        <time>2020-06-23T18:11:02.169Z</time>
      </trkpt>
      <trkpt lat="50.48879" lon="3.49766">
        <ele>16.046016</ele>
        <time>2020-06-23T18:11:11.631Z</time>
      </trkpt>
      <trkpt lat="50.4887" lon="3.49728">
        <ele>15.969756</ele>
        <time>2020-06-23T18:11:14.459Z</time>
      </trkpt>
      <trkpt lat="50.48861" lon="3.49706">
        <ele>15.917651</ele>
        <time>2020-06-23T18:11:16.488Z</time>
      </trkpt>
      <trkpt lat="50.48847" lon="3.49688">
        <ele>15.8887</ele>
        <time>2020-06-23T18:11:18.454Z</time>
      </trkpt>
      <trkpt lat="50.48765" lon="3.49649">
        <ele>15.779379</ele>
        <time>2020-06-23T18:11:28.230Z</time>
      </trkpt>
      <trkpt lat="50.48736" lon="3.49611">
        <ele>15.732114</ele>
        <time>2020-06-23T18:11:32.646Z</time>
      </trkpt>
      <trkpt lat="50.48731" lon="3.4961">
        <ele>15.724823</ele>
        <time>2020-06-23T18:11:33.308Z</time>
      </trkpt>
      <trkpt lat="50.48684" lon="3.49642">
        <ele>15.704809</ele>
        <time>2020-06-23T18:11:39.196Z</time>
      </trkpt>
      <trkpt lat="50.48628" lon="3.49654">
        <ele>15.815775</ele>
        <time>2020-06-23T18:11:45.857Z</time>
      </trkpt>
      <trkpt lat="50.48604" lon="3.49668">
        <ele>15.865984</ele>
        <time>2020-06-23T18:11:49.025Z</time>
      </trkpt>
      <trkpt lat="50.4857" lon="3.49704">
        <ele>15.945835</ele>
        <time>2020-06-23T18:11:54.537Z</time>
      </trkpt>
      <trkpt lat="50.48526" lon="3.49777">
        <ele>16.044287</ele>
        <time>2020-06-23T18:12:02.907Z</time>
      </trkpt>
      <trkpt lat="50.4851" lon="3.49792">
        <ele>16.05833</ele>
        <time>2020-06-23T18:12:05.328Z</time>
      </trkpt>
      <trkpt lat="50.48497" lon="3.49796">
        <ele>16.068727</ele>
        <time>2020-06-23T18:12:06.987Z</time>
      </trkpt>
      <trkpt lat="50.48475" lon="3.49799">
        <ele>16.08531</ele>
        <time>2020-06-23T18:12:09.791Z</time>
      </trkpt>
      <trkpt lat="50.4847" lon="3.498">
        <ele>16.089409</ele>
        <time>2020-06-23T18:12:10.442Z</time>
      </trkpt>
      <trkpt lat="50.48464" lon="3.49803">
        <ele>16.094398</ele>
        <time>2020-06-23T18:12:11.219Z</time>
      </trkpt>
      <trkpt lat="50.48456" lon="3.4981">
        <ele>16.101568</ele>
        <time>2020-06-23T18:12:12.371Z</time>
      </trkpt>
      <trkpt lat="50.48417" lon="3.49873">
        <ele>16.144123</ele>
        <time>2020-06-23T18:12:19.066Z</time>
      </trkpt>
      <trkpt lat="50.48317" lon="3.50036">
        <ele>15.525111</ele>
        <time>2020-06-23T18:12:34.386Z</time>
      </trkpt>
      <trkpt lat="50.48314" lon="3.50065">
        <ele>15.421772</ele>
        <time>2020-06-23T18:12:36.272Z</time>
      </trkpt>
      <trkpt lat="50.48334" lon="3.50155">
        <ele>15.115472</ele>
        <time>2020-06-23T18:12:42.515Z</time>
      </trkpt>
      <trkpt lat="50.48334" lon="3.50262">
        <ele>14.874464</ele>
        <time>2020-06-23T18:12:49.627Z</time>
      </trkpt>
      <trkpt lat="50.48195" lon="3.50547">
        <ele>14.468661</ele>
        <time>2020-06-23T18:13:15.747Z</time>
      </trkpt>
      <trkpt lat="50.48156" lon="3.50601">
        <ele>14.464635</ele>
        <time>2020-06-23T18:13:22.332Z</time>
      </trkpt>
      <trkpt lat="50.48134" lon="3.50632">
        <ele>14.591401</ele>
        <time>2020-06-23T18:13:26.213Z</time>
      </trkpt>
      <trkpt lat="50.48087" lon="3.50718">
        <ele>14.897314</ele>
        <time>2020-06-23T18:13:35.719Z</time>
      </trkpt>
      <trkpt lat="50.48047" lon="3.50871">
        <ele>15.385798</ele>
        <time>2020-06-23T18:13:50.032Z</time>
      </trkpt>
      <trkpt lat="50.48001" lon="3.50943">
        <ele>15.741425</ele>
        <time>2020-06-23T18:13:58.734Z</time>
      </trkpt>
      <trkpt lat="50.47986" lon="3.50967">
        <ele>15.860522</ele>
        <time>2020-06-23T18:14:01.671Z</time>
      </trkpt>
      <trkpt lat="50.47952" lon="3.51044">
        <ele>16.189716</ele>
        <time>2020-06-23T18:14:09.805Z</time>
      </trkpt>
      <trkpt lat="50.47858" lon="3.51324">
        <ele>17.334902</ele>
        <time>2020-06-23T18:14:37.594Z</time>
      </trkpt>
      <trkpt lat="50.47824" lon="3.51488">
        <ele>17.726187</ele>
        <time>2020-06-23T18:14:52.204Z</time>
      </trkpt>
      <trkpt lat="50.47785" lon="3.51628">
        <ele>17.746911</ele>
        <time>2020-06-23T18:15:04.110Z</time>
      </trkpt>
      <trkpt lat="50.47784" lon="3.51643">
        <ele>17.713076</ele>
        <time>2020-06-23T18:15:05.233Z</time>
      </trkpt>
      <trkpt lat="50.47784" lon="3.5165">
        <ele>17.697472</ele>
        <time>2020-06-23T18:15:05.742Z</time>
      </trkpt>
      <trkpt lat="50.47783" lon="3.51663">
        <ele>17.66884</ele>
        <time>2020-06-23T18:15:06.694Z</time>
      </trkpt>
      <trkpt lat="50.47774" lon="3.51664">
        <ele>17.638669</ele>
        <time>2020-06-23T18:15:07.972Z</time>
      </trkpt>
      <trkpt lat="50.47726" lon="3.51668">
        <ele>17.468209</ele>
        <time>2020-06-23T18:15:15.217Z</time>
      </trkpt>
      <trkpt lat="50.47675" lon="3.51675">
        <ele>17.290195</ele>
        <time>2020-06-23T18:15:22.651Z</time>
      </trkpt>
      <trkpt lat="50.47619" lon="3.51684">
        <ele>17.00363</ele>
        <time>2020-06-23T18:15:30.729Z</time>
      </trkpt>
      <trkpt lat="50.47604" lon="3.51687">
        <ele>16.92431</ele>
        <time>2020-06-23T18:15:32.925Z</time>
      </trkpt>
      <trkpt lat="50.47587" lon="3.51707">
        <ele>16.817561</ele>
        <time>2020-06-23T18:15:35.893Z</time>
      </trkpt>
      <trkpt lat="50.47527" lon="3.51799">
        <ele>16.383528</ele>
        <time>2020-06-23T18:15:48.414Z</time>
      </trkpt>
      <trkpt lat="50.47496" lon="3.51846">
        <ele>16.598463</ele>
        <time>2020-06-23T18:15:55.463Z</time>
      </trkpt>
      <trkpt lat="50.47462" lon="3.5188">
        <ele>16.871218</ele>
        <time>2020-06-23T18:16:02.721Z</time>
      </trkpt>
      <trkpt lat="50.47393" lon="3.51949">
        <ele>17.419262</ele>
        <time>2020-06-23T18:16:18.572Z</time>
      </trkpt>
      <trkpt lat="50.47369" lon="3.51978">
        <ele>17.654788</ele>
        <time>2020-06-23T18:16:24.704Z</time>
      </trkpt>
      <trkpt lat="50.47331" lon="3.5204">
        <ele>18.201079</ele>
        <time>2020-06-23T18:16:35.347Z</time>
      </trkpt>
      <trkpt lat="50.47323" lon="3.52048">
        <ele>18.295482</ele>
        <time>2020-06-23T18:16:37.487Z</time>
      </trkpt>
      <trkpt lat="50.47303" lon="3.52064">
        <ele>18.518337</ele>
        <time>2020-06-23T18:16:41.669Z</time>
      </trkpt>
      <trkpt lat="50.47268" lon="3.52088">
        <ele>18.901909</ele>
        <time>2020-06-23T18:16:49.393Z</time>
      </trkpt>
      <trkpt lat="50.47255" lon="3.52101">
        <ele>19.050595</ele>
        <time>2020-06-23T18:16:52.655Z</time>
      </trkpt>
      <trkpt lat="50.47248" lon="3.52111">
        <ele>19.146851</ele>
        <time>2020-06-23T18:16:54.390Z</time>
      </trkpt>
      <trkpt lat="50.4724" lon="3.5211">
        <ele>19.230715</ele>
        <time>2020-06-23T18:16:55.800Z</time>
      </trkpt>
      <trkpt lat="50.47223" lon="3.52117">
        <ele>19.347097</ele>
        <time>2020-06-23T18:16:59.206Z</time>
      </trkpt>
      <trkpt lat="50.4718" lon="3.52157">
        <ele>19.302238</ele>
        <time>2020-06-23T18:17:07.913Z</time>
      </trkpt>
      <trkpt lat="50.47123" lon="3.52206">
        <ele>19.243804</ele>
        <time>2020-06-23T18:17:18.378Z</time>
      </trkpt>
      <trkpt lat="50.47112" lon="3.52214">
        <ele>19.233552</ele>
        <time>2020-06-23T18:17:20.020Z</time>
      </trkpt>
      <trkpt lat="50.47106" lon="3.52218">
        <ele>19.227595</ele>
        <time>2020-06-23T18:17:20.996Z</time>
      </trkpt>
      <trkpt lat="50.47043" lon="3.5234">
        <ele>18.738851</ele>
        <time>2020-06-23T18:17:35.096Z</time>
      </trkpt>
      <trkpt lat="50.47003" lon="3.52294">
        <ele>18.352086</ele>
        <time>2020-06-23T18:17:40.113Z</time>
      </trkpt>
      <trkpt lat="50.46989" lon="3.52278">
        <ele>18.218964</ele>
        <time>2020-06-23T18:17:41.869Z</time>
      </trkpt>
      <trkpt lat="50.46985" lon="3.52273">
        <ele>18.182485</ele>
        <time>2020-06-23T18:17:42.382Z</time>
      </trkpt>
      <trkpt lat="50.46961" lon="3.52246">
        <ele>17.954806</ele>
        <time>2020-06-23T18:17:45.387Z</time>
      </trkpt>
      <trkpt lat="50.46903" lon="3.52179">
        <ele>17.732411</ele>
        <time>2020-06-23T18:17:52.847Z</time>
      </trkpt>
      <trkpt lat="50.46859" lon="3.52136">
        <ele>17.665458</ele>
        <time>2020-06-23T18:17:58.789Z</time>
      </trkpt>
      <trkpt lat="50.46795" lon="3.52081">
        <ele>17.570851</ele>
        <time>2020-06-23T18:18:08.237Z</time>
      </trkpt>
      <trkpt lat="50.46702" lon="3.52009">
        <ele>17.714012</ele>
        <time>2020-06-23T18:18:20.736Z</time>
      </trkpt>
      <trkpt lat="50.46599" lon="3.5194">
        <ele>17.913431</ele>
        <time>2020-06-23T18:18:34.607Z</time>
      </trkpt>
      <trkpt lat="50.46568" lon="3.51907">
        <ele>18.009022</ele>
        <time>2020-06-23T18:18:39.325Z</time>
      </trkpt>
      <trkpt lat="50.46547" lon="3.51878">
        <ele>18.079777</ele>
        <time>2020-06-23T18:18:42.842Z</time>
      </trkpt>
      <trkpt lat="50.46439" lon="3.5173">
        <ele>18.561044</ele>
        <time>2020-06-23T18:19:01.506Z</time>
      </trkpt>
      <trkpt lat="50.46372" lon="3.51656">
        <ele>18.927364</ele>
        <time>2020-06-23T18:19:12.607Z</time>
      </trkpt>
      <trkpt lat="50.46353" lon="3.51643">
        <ele>19.018911</ele>
        <time>2020-06-23T18:19:15.396Z</time>
      </trkpt>
      <trkpt lat="50.46355" lon="3.51626">
        <ele>19.067304</ele>
        <time>2020-06-23T18:19:16.831Z</time>
      </trkpt>
      <trkpt lat="50.46356" lon="3.51623">
        <ele>19.07712</ele>
        <time>2020-06-23T18:19:17.168Z</time>
      </trkpt>
      <trkpt lat="50.46413" lon="3.51434">
        <ele>19.433834</ele>
        <time>2020-06-23T18:19:34.738Z</time>
      </trkpt>
      <trkpt lat="50.46429" lon="3.51375">
        <ele>19.542292</ele>
        <time>2020-06-23T18:19:39.589Z</time>
      </trkpt>
      <trkpt lat="50.46476" lon="3.51249">
        <ele>19.13191</ele>
        <time>2020-06-23T18:19:49.781Z</time>
      </trkpt>
      <trkpt lat="50.46595" lon="3.51017">
        <ele>18.127926</ele>
        <time>2020-06-23T18:20:09.160Z</time>
      </trkpt>
      <trkpt lat="50.46712" lon="3.50883">
        <ele>17.671405</ele>
        <time>2020-06-23T18:20:24.760Z</time>
      </trkpt>
      <trkpt lat="50.46737" lon="3.50844">
        <ele>17.679572</ele>
        <time>2020-06-23T18:20:28.961Z</time>
      </trkpt>
      <trkpt lat="50.46753" lon="3.50815">
        <ele>17.685117</ele>
        <time>2020-06-23T18:20:31.978Z</time>
      </trkpt>
      <trkpt lat="50.46769" lon="3.50781">
        <ele>17.691377</ele>
        <time>2020-06-23T18:20:35.457Z</time>
      </trkpt>
      <trkpt lat="50.46789" lon="3.50752">
        <ele>17.697736</ele>
        <time>2020-06-23T18:20:39.106Z</time>
      </trkpt>
      <trkpt lat="50.46824" lon="3.5072">
        <ele>17.964896</ele>
        <time>2020-06-23T18:20:44.602Z</time>
      </trkpt>
      <trkpt lat="50.46907" lon="3.50628">
        <ele>18.765478</ele>
        <time>2020-06-23T18:20:59.499Z</time>
      </trkpt>
      <trkpt lat="50.46962" lon="3.50562">
        <ele>19.420341</ele>
        <time>2020-06-23T18:21:09.636Z</time>
      </trkpt>
      <trkpt lat="50.46968" lon="3.50542">
        <ele>19.595356</ele>
        <time>2020-06-23T18:21:11.830Z</time>
      </trkpt>
      <trkpt lat="50.46973" lon="3.50522">
        <ele>19.763816</ele>
        <time>2020-06-23T18:21:13.883Z</time>
      </trkpt>
      <trkpt lat="50.46981" lon="3.50507">
        <ele>19.921675</ele>
        <time>2020-06-23T18:21:15.781Z</time>
      </trkpt>
      <trkpt lat="50.47041" lon="3.50454">
        <ele>20.77384</ele>
        <time>2020-06-23T18:21:26.902Z</time>
      </trkpt>
      <trkpt lat="50.47068" lon="3.5042">
        <ele>21.204616</ele>
        <time>2020-06-23T18:21:32.595Z</time>
      </trkpt>
      <trkpt lat="50.47093" lon="3.50388">
        <ele>21.589389</ele>
        <time>2020-06-23T18:21:37.909Z</time>
      </trkpt>
      <trkpt lat="50.47106" lon="3.50372">
        <ele>21.779536</ele>
        <time>2020-06-23T18:21:40.763Z</time>
      </trkpt>
      <trkpt lat="50.47121" lon="3.50349">
        <ele>22.030033</ele>
        <time>2020-06-23T18:21:43.955Z</time>
      </trkpt>
      <trkpt lat="50.47125" lon="3.50344">
        <ele>22.093265</ele>
        <time>2020-06-23T18:21:45.175Z</time>
      </trkpt>
      <trkpt lat="50.47177" lon="3.50204">
        <ele>23.301998</ele>
        <time>2020-06-23T18:22:01.469Z</time>
      </trkpt>
      <trkpt lat="50.47301" lon="3.49967">
        <ele>23.87677</ele>
        <time>2020-06-23T18:22:26.161Z</time>
      </trkpt>
      <trkpt lat="50.47311" lon="3.4995">
        <ele>23.854069</ele>
        <time>2020-06-23T18:22:27.764Z</time>
      </trkpt>
      <trkpt lat="50.47346" lon="3.49919">
        <ele>23.792142</ele>
        <time>2020-06-23T18:22:32.107Z</time>
      </trkpt>
      <trkpt lat="50.47367" lon="3.49905">
        <ele>23.756861</ele>
        <time>2020-06-23T18:22:34.535Z</time>
      </trkpt>
      <trkpt lat="50.47374" lon="3.49903">
        <ele>23.74625</ele>
        <time>2020-06-23T18:22:35.285Z</time>
      </trkpt>
      <trkpt lat="50.47386" lon="3.49892">
        <ele>23.723755</ele>
        <time>2020-06-23T18:22:36.858Z</time>
      </trkpt>
      <trkpt lat="50.47432" lon="3.49811">
        <ele>23.617195</ele>
        <time>2020-06-23T18:22:44.836Z</time>
      </trkpt>
      <trkpt lat="50.47467" lon="3.49758">
        <ele>23.676643</ele>
        <time>2020-06-23T18:22:50.561Z</time>
      </trkpt>
      <trkpt lat="50.47496" lon="3.49729">
        <ele>23.742888</ele>
        <time>2020-06-23T18:22:55.013Z</time>
      </trkpt>
      <trkpt lat="50.47513" lon="3.49711">
        <ele>23.781046</ele>
        <time>2020-06-23T18:22:57.744Z</time>
      </trkpt>
      <trkpt lat="50.47524" lon="3.49696">
        <ele>23.809435</ele>
        <time>2020-06-23T18:22:59.740Z</time>
      </trkpt>
      <trkpt lat="50.47702" lon="3.49428">
        <ele>24.067978</ele>
        <time>2020-06-23T18:23:30.461Z</time>
      </trkpt>
      <trkpt lat="50.48039" lon="3.49011">
        <ele>21.17518</ele>
        <time>2020-06-23T18:24:14.231Z</time>
      </trkpt>
      <trkpt lat="50.48198" lon="3.48751">
        <ele>19.522697</ele>
        <time>2020-06-23T18:24:38.237Z</time>
      </trkpt>
      <trkpt lat="50.48203" lon="3.48748">
        <ele>19.479024</ele>
        <time>2020-06-23T18:24:38.721Z</time>
      </trkpt>
      <trkpt lat="50.48212" lon="3.48742">
        <ele>19.39432</ele>
        <time>2020-06-23T18:24:39.699Z</time>
      </trkpt>
      <trkpt lat="50.48225" lon="3.48736">
        <ele>19.285059</ele>
        <time>2020-06-23T18:24:41.104Z</time>
      </trkpt>
      <trkpt lat="50.48233" lon="3.48733">
        <ele>19.223614</ele>
        <time>2020-06-23T18:24:41.830Z</time>
      </trkpt>
      <trkpt lat="50.48239" lon="3.4873">
        <ele>19.168065</ele>
        <time>2020-06-23T18:24:42.425Z</time>
      </trkpt>
      <trkpt lat="50.48321" lon="3.4869">
        <ele>18.320277</ele>
        <time>2020-06-23T18:24:50.545Z</time>
      </trkpt>
      <trkpt lat="50.48377" lon="3.48595">
        <ele>17.45006</ele>
        <time>2020-06-23T18:24:58.394Z</time>
      </trkpt>
      <trkpt lat="50.48409" lon="3.48525">
        <ele>17.071942</ele>
        <time>2020-06-23T18:25:04.186Z</time>
      </trkpt>
      <trkpt lat="50.48421" lon="3.48496">
        <ele>17.054045</ele>
        <time>2020-06-23T18:25:06.508Z</time>
      </trkpt>
      <trkpt lat="50.48424" lon="3.48468">
        <ele>17.038903</ele>
        <time>2020-06-23T18:25:08.584Z</time>
      </trkpt>
      <trkpt lat="50.48425" lon="3.48435">
        <ele>17.021568</ele>
        <time>2020-06-23T18:25:10.966Z</time>
      </trkpt>
      <trkpt lat="50.48425" lon="3.48416">
        <ele>17.011617</ele>
        <time>2020-06-23T18:25:12.427Z</time>
      </trkpt>
      <trkpt lat="50.48419" lon="3.48244">
        <ele>17.00909</ele>
        <time>2020-06-23T18:25:26.243Z</time>
      </trkpt>
      <trkpt lat="50.48416" lon="3.48188">
        <ele>17.112278</ele>
        <time>2020-06-23T18:25:30.947Z</time>
      </trkpt>
      <trkpt lat="50.48414" lon="3.48159">
        <ele>17.165259</ele>
        <time>2020-06-23T18:25:33.336Z</time>
      </trkpt>
      <trkpt lat="50.48413" lon="3.48125">
        <ele>17.228448</ele>
        <time>2020-06-23T18:25:36.164Z</time>
      </trkpt>
      <trkpt lat="50.48408" lon="3.48038">
        <ele>17.389173</ele>
        <time>2020-06-23T18:25:43.331Z</time>
      </trkpt>
      <trkpt lat="50.48412" lon="3.48004">
        <ele>17.451651</ele>
        <time>2020-06-23T18:25:46.096Z</time>
      </trkpt>
      <trkpt lat="50.48417" lon="3.47979">
        <ele>17.484688</ele>
        <time>2020-06-23T18:25:48.255Z</time>
      </trkpt>
      <trkpt lat="50.48424" lon="3.4796">
        <ele>17.509171</ele>
        <time>2020-06-23T18:25:50.008Z</time>
      </trkpt>
      <trkpt lat="50.48439" lon="3.47931">
        <ele>17.552664</ele>
        <time>2020-06-23T18:25:53.096Z</time>
      </trkpt>
      <trkpt lat="50.485" lon="3.47882">
        <ele>17.673216</ele>
        <time>2020-06-23T18:26:01.490Z</time>
      </trkpt>
      <trkpt lat="50.4856" lon="3.47846">
        <ele>17.777685</ele>
        <time>2020-06-23T18:26:09.451Z</time>
      </trkpt>
      <trkpt lat="50.48564" lon="3.47844">
        <ele>17.776007</ele>
        <time>2020-06-23T18:26:10.074Z</time>
      </trkpt>
      <trkpt lat="50.48665" lon="3.47798">
        <ele>17.739703</ele>
        <time>2020-06-23T18:26:22.647Z</time>
      </trkpt>
      <trkpt lat="50.48676" lon="3.47786">
        <ele>17.735143</ele>
        <time>2020-06-23T18:26:24.172Z</time>
      </trkpt>
      <trkpt lat="50.48683" lon="3.47766">
        <ele>17.729967</ele>
        <time>2020-06-23T18:26:25.778Z</time>
      </trkpt>
      <trkpt lat="50.48689" lon="3.47737">
        <ele>17.72345</ele>
        <time>2020-06-23T18:26:27.945Z</time>
      </trkpt>
      <trkpt lat="50.48701" lon="3.47672">
        <ele>17.664664</ele>
        <time>2020-06-23T18:26:32.769Z</time>
      </trkpt>
      <trkpt lat="50.48711" lon="3.47619">
        <ele>17.590138</ele>
        <time>2020-06-23T18:26:36.726Z</time>
      </trkpt>
      <trkpt lat="50.4872" lon="3.47579">
        <ele>17.531741</ele>
        <time>2020-06-23T18:26:39.849Z</time>
      </trkpt>
      <trkpt lat="50.48729" lon="3.47551">
        <ele>17.489298</ele>
        <time>2020-06-23T18:26:42.057Z</time>
      </trkpt>
      <trkpt lat="50.48742" lon="3.47483">
        <ele>17.392295</ele>
        <time>2020-06-23T18:26:47.152Z</time>
      </trkpt>
      <trkpt lat="50.48743" lon="3.4748">
        <ele>17.388392</ele>
        <time>2020-06-23T18:26:47.340Z</time>
      </trkpt>
      <trkpt lat="50.48757" lon="3.47361">
        <ele>17.268412</ele>
        <time>2020-06-23T18:26:56.105Z</time>
      </trkpt>
      <trkpt lat="50.48793" lon="3.46933">
        <ele>16.897125</ele>
        <time>2020-06-23T18:27:27.987Z</time>
      </trkpt>
      <trkpt lat="50.48795" lon="3.4691">
        <ele>16.875952</ele>
        <time>2020-06-23T18:27:29.544Z</time>
      </trkpt>
      <trkpt lat="50.488" lon="3.46856">
        <ele>16.772887</ele>
        <time>2020-06-23T18:27:33.546Z</time>
      </trkpt>
      <trkpt lat="50.48807" lon="3.46816">
        <ele>16.641729</ele>
        <time>2020-06-23T18:27:36.515Z</time>
      </trkpt>
      <trkpt lat="50.4887" lon="3.46679">
        <ele>16.11152</ele>
        <time>2020-06-23T18:27:47.707Z</time>
      </trkpt>
      <trkpt lat="50.48873" lon="3.46674">
        <ele>16.089209</ele>
        <time>2020-06-23T18:27:48.291Z</time>
      </trkpt>
      <trkpt lat="50.48892" lon="3.46634">
        <ele>15.937645</ele>
        <time>2020-06-23T18:27:52.970Z</time>
      </trkpt>
      <trkpt lat="50.4891" lon="3.46609">
        <ele>15.849074</ele>
        <time>2020-06-23T18:27:56.562Z</time>
      </trkpt>
      <trkpt lat="50.48919" lon="3.46599">
        <ele>15.809887</ele>
        <time>2020-06-23T18:27:58.032Z</time>
      </trkpt>
      <trkpt lat="50.48946" lon="3.46572">
        <ele>15.691355</ele>
        <time>2020-06-23T18:28:02.739Z</time>
      </trkpt>
      <trkpt lat="50.49052" lon="3.46461">
        <ele>15.442756</ele>
        <time>2020-06-23T18:28:22.008Z</time>
      </trkpt>
      <trkpt lat="50.4911" lon="3.46408">
        <ele>15.947178</ele>
        <time>2020-06-23T18:28:33.854Z</time>
      </trkpt>
      <trkpt lat="50.49198" lon="3.463">
        <ele>16.951329</ele>
        <time>2020-06-23T18:28:56.610Z</time>
      </trkpt>
      <trkpt lat="50.49258" lon="3.4619">
        <ele>18.42301</ele>
        <time>2020-06-23T18:29:16.891Z</time>
      </trkpt>
      <trkpt lat="50.49302" lon="3.46091">
        <ele>19.567963</ele>
        <time>2020-06-23T18:29:33.839Z</time>
      </trkpt>
      <trkpt lat="50.49375" lon="3.45959">
        <ele>20.026792</ele>
        <time>2020-06-23T18:29:54.134Z</time>
      </trkpt>
      <trkpt lat="50.49387" lon="3.45927">
        <ele>20.124439</ele>
        <time>2020-06-23T18:29:57.883Z</time>
      </trkpt>
      <trkpt lat="50.49394" lon="3.45893">
        <ele>20.219651</ele>
        <time>2020-06-23T18:30:01.305Z</time>
      </trkpt>
      <trkpt lat="50.49409" lon="3.45833">
        <ele>20.068122</ele>
        <time>2020-06-23T18:30:07.239Z</time>
      </trkpt>
      <trkpt lat="50.49463" lon="3.45576">
        <ele>18.825485</ele>
        <time>2020-06-23T18:30:31.500Z</time>
      </trkpt>
      <trkpt lat="50.4949" lon="3.45459">
        <ele>18.632571</ele>
        <time>2020-06-23T18:30:43.705Z</time>
      </trkpt>
      <trkpt lat="50.49498" lon="3.45423">
        <ele>18.574214</ele>
        <time>2020-06-23T18:30:47.542Z</time>
      </trkpt>
      <trkpt lat="50.49517" lon="3.4538">
        <ele>18.493698</ele>
        <time>2020-06-23T18:30:53.046Z</time>
      </trkpt>
      <trkpt lat="50.4954" lon="3.45338">
        <ele>18.414626</ele>
        <time>2020-06-23T18:30:58.932Z</time>
      </trkpt>
      <trkpt lat="50.49561" lon="3.45307">
        <ele>18.359184</ele>
        <time>2020-06-23T18:31:03.637Z</time>
      </trkpt>
      <trkpt lat="50.49592" lon="3.45277">
        <ele>18.288058</ele>
        <time>2020-06-23T18:31:09.334Z</time>
      </trkpt>
      <trkpt lat="50.49624" lon="3.45256">
        <ele>18.221856</ele>
        <time>2020-06-23T18:31:14.538Z</time>
      </trkpt>
      <trkpt lat="50.49648" lon="3.45244">
        <ele>18.173414</ele>
        <time>2020-06-23T18:31:18.387Z</time>
      </trkpt>
      <trkpt lat="50.49723" lon="3.45207">
        <ele>18.089038</ele>
        <time>2020-06-23T18:31:27.124Z</time>
      </trkpt>
      <trkpt lat="50.49811" lon="3.4518">
        <ele>18.089038</ele>
        <time>2020-06-23T18:31:36.985Z</time>
      </trkpt>
      <trkpt lat="50.49879" lon="3.45144">
        <ele>18.089038</ele>
        <time>2020-06-23T18:31:45.104Z</time>
      </trkpt>
      <trkpt lat="50.49885" lon="3.4514">
        <ele>18.089038</ele>
        <time>2020-06-23T18:31:45.855Z</time>
      </trkpt>
      <trkpt lat="50.49899" lon="3.45131">
        <ele>18.089038</ele>
        <time>2020-06-23T18:31:47.566Z</time>
      </trkpt>
    </trkseg>
  </trk>
</gpx>